Wetterdaten: Sonntag, 12.11.2023
Datum Zeit Temp. Aussen Temp. o. S. Temp +5cm Feuchte Auss Luftdruck Regen Sonnenschein Regendauer Solar Windben Empfang
12.11.2023 00:00 4,5 C 3,9 C 1,7 C 96 % 1007,2 hPa 0,0 l/m 0 min 0 min 0 W/m 6,4 km/h (2 Bft) 97,87 %
12.11.2023 00:02 4,4 C 3,9 C 1,7 C 96 % 1007,2 hPa 0,0 l/m 0 min 0 min 0 W/m 0,0 km/h (0 Bft) 92,86 %
12.11.2023 00:04 4,4 C 3,9 C 1,7 C 96 % 1007,2 hPa 0,0 l/m 0 min 0 min 0 W/m 3,2 km/h (1 Bft) 95,83 %
12.11.2023 00:08 4,4 C 3,9 C 1,7 C 96 % 1007,2 hPa 0,0 l/m 0 min 0 min 0 W/m 0,0 km/h (0 Bft) 97,85 %
12.11.2023 00:09 4,4 C 3,9 C 1,7 C 96 % 1007,2 hPa 0,0 l/m 0 min 0 min 0 W/m 0,0 km/h (0 Bft) 100,00 %
12.11.2023 00:10 4,4 C 3,9 C 1,7 C 96 % 1007,2 hPa 0,0 l/m 0 min 0 min 0 W/m 0,0 km/h (0 Bft) 100,00 %
12.11.2023 00:14 4,4 C 3,9 C 1,7 C 96 % 1007,2 hPa 0,0 l/m 0 min 0 min 0 W/m 0,0 km/h (0 Bft) 94,44 %
12.11.2023 00:16 4,4 C 3,9 C 1,1 C 96 % 1007,1 hPa 0,0 l/m 0 min 0 min 0 W/m 0,0 km/h (0 Bft) 97,87 %
12.11.2023 00:18 4,4 C 3,9 C 1,1 C 96 % 1007,2 hPa 0,0 l/m 0 min 0 min 0 W/m 3,2 km/h (1 Bft) 97,87 %
12.11.2023 00:20 4,4 C 3,9 C 1,1 C 96 % 1007,2 hPa 0,0 l/m 0 min 0 min 0 W/m 0,0 km/h (0 Bft) 97,83 %
12.11.2023 00:22 4,4 C 3,9 C 1,1 C 96 % 1007,2 hPa 0,0 l/m 0 min 0 min 0 W/m 0,0 km/h (0 Bft) 100,00 %
12.11.2023 00:24 4,4 C 3,9 C 1,1 C 96 % 1007,2 hPa 0,0 l/m 0 min 0 min 0 W/m 3,2 km/h (1 Bft) 97,83 %
12.11.2023 00:26 4,4 C 3,9 C 1,1 C 96 % 1007,1 hPa 0,0 l/m 0 min 0 min 0 W/m 3,2 km/h (1 Bft) 95,74 %
12.11.2023 00:30 4,3 C 3,9 C 1,1 C 96 % 1007,1 hPa 0,0 l/m 0 min 0 min 0 W/m 9,7 km/h (2 Bft) 99,12 %
12.11.2023 00:32 4,3 C 3,9 C 1,1 C 96 % 1007,1 hPa 0,0 l/m 0 min 0 min 0 W/m 6,4 km/h (2 Bft) 100,00 %
12.11.2023 00:34 4,4 C 3,9 C 1,1 C 96 % 1007,1 hPa 0,0 l/m 0 min 0 min 0 W/m 12,9 km/h (3 Bft) 98,18 %
12.11.2023 00:36 4,4 C 3,9 C 1,7 C 96 % 1007,0 hPa 0,0 l/m 0 min 0 min 0 W/m 9,7 km/h (2 Bft) 97,83 %
12.11.2023 00:38 4,4 C 3,9 C 1,7 C 96 % 1007,0 hPa 0,0 l/m 0 min 0 min 0 W/m 6,4 km/h (2 Bft) 97,87 %
12.11.2023 00:40 4,4 C 3,9 C 1,7 C 96 % 1007,0 hPa 0,0 l/m 0 min 0 min 0 W/m 6,4 km/h (2 Bft) 97,87 %
12.11.2023 00:42 4,4 C 3,9 C 1,1 C 96 % 1006,9 hPa 0,0 l/m 0 min 0 min 0 W/m 9,7 km/h (2 Bft) 97,30 %
12.11.2023 00:44 4,4 C 3,9 C 1,1 C 96 % 1006,9 hPa 0,0 l/m 0 min 0 min 0 W/m 6,4 km/h (2 Bft) 97,87 %
12.11.2023 00:46 4,4 C 3,9 C 1,1 C 96 % 1007,0 hPa 0,0 l/m 0 min 0 min 0 W/m 9,7 km/h (2 Bft) 95,74 %
12.11.2023 00:54 4,4 C 3,9 C 1,1 C 96 % 1006,8 hPa 0,0 l/m 0 min 0 min 0 W/m 6,4 km/h (2 Bft) 100,00 %
12.11.2023 00:55 4,4 C 3,9 C 1,1 C 96 % 1006,8 hPa 0,0 l/m 0 min 0 min 0 W/m 0,0 km/h (0 Bft) 100,00 %
12.11.2023 01:00 4,3 C 3,9 C 1,1 C 96 % 1006,8 hPa 0,0 l/m 0 min 0 min 0 W/m 9,7 km/h (2 Bft) 100,00 %
12.11.2023 01:02 4,4 C 3,9 C 1,1 C 96 % 1006,7 hPa 0,0 l/m 0 min 0 min 0 W/m 6,4 km/h (2 Bft) 97,87 %
12.11.2023 01:04 4,4 C 3,9 C 1,1 C 96 % 1006,7 hPa 0,0 l/m 0 min 0 min 0 W/m 6,4 km/h (2 Bft) 100,00 %
12.11.2023 01:08 4,3 C 3,9 C 1,7 C 96 % 1006,7 hPa 0,0 l/m 0 min 0 min 0 W/m 6,4 km/h (2 Bft) 100,00 %
12.11.2023 01:09 4,3 C 3,9 C 1,7 C 96 % 1006,7 hPa 0,0 l/m 0 min 0 min 0 W/m 6,4 km/h (2 Bft) 100,00 %
12.11.2023 01:10 4,4 C 3,9 C 1,1 C 96 % 1006,7 hPa 0,0 l/m 0 min 0 min 0 W/m 6,4 km/h (2 Bft) 100,00 %
12.11.2023 01:14 4,3 C 3,9 C 1,7 C 96 % 1006,7 hPa 0,0 l/m 0 min 0 min 0 W/m 0,0 km/h (0 Bft) 98,28 %
12.11.2023 01:16 4,3 C 3,9 C 1,1 C 96 % 1006,7 hPa 0,0 l/m 0 min 0 min 0 W/m 0,0 km/h (0 Bft) 97,14 %
12.11.2023 01:18 4,3 C 3,9 C 1,1 C 96 % 1006,7 hPa 0,0 l/m 0 min 0 min 0 W/m 3,2 km/h (1 Bft) 98,00 %
12.11.2023 01:20 4,3 C 3,9 C 1,1 C 97 % 1006,7 hPa 0,0 l/m 0 min 0 min 0 W/m 0,0 km/h (0 Bft) 97,87 %
12.11.2023 01:22 4,3 C 3,9 C 1,7 C 97 % 1006,6 hPa 0,0 l/m 0 min 0 min 0 W/m 0,0 km/h (0 Bft) 93,62 %
12.11.2023 01:24 4,3 C 3,3 C 1,1 C 97 % 1006,7 hPa 0,0 l/m 0 min 0 min 0 W/m 3,2 km/h (1 Bft) 93,88 %
12.11.2023 01:26 4,3 C 3,3 C 1,1 C 97 % 1006,6 hPa 0,0 l/m 0 min 0 min 0 W/m 0,0 km/h (0 Bft) 97,87 %
12.11.2023 01:28 4,3 C 3,3 C 1,1 C 97 % 1006,7 hPa 0,0 l/m 0 min 0 min 0 W/m 0,0 km/h (0 Bft) 100,00 %
12.11.2023 01:30 4,3 C 3,3 C 1,1 C 97 % 1006,7 hPa 0,0 l/m 0 min 0 min 0 W/m 3,2 km/h (1 Bft) 95,74 %
12.11.2023 01:32 4,3 C 3,3 C 1,1 C 97 % 1006,6 hPa 0,0 l/m 0 min 0 min 0 W/m 0,0 km/h (0 Bft) 97,87 %
12.11.2023 01:34 4,3 C 3,3 C 1,1 C 97 % 1006,6 hPa 0,0 l/m 0 min 0 min 0 W/m 0,0 km/h (0 Bft) 97,87 %
12.11.2023 01:36 4,3 C 3,3 C 1,1 C 97 % 1006,6 hPa 0,0 l/m 0 min 0 min 0 W/m 3,2 km/h (1 Bft) 95,65 %
12.11.2023 01:38 4,3 C 3,3 C 1,1 C 97 % 1006,6 hPa 0,0 l/m 0 min 0 min 0 W/m 6,4 km/h (2 Bft) 95,74 %
12.11.2023 01:40 4,3 C 3,3 C 1,1 C 97 % 1006,6 hPa 0,0 l/m 0 min 0 min 0 W/m 0,0 km/h (0 Bft) 95,74 %
12.11.2023 01:42 4,3 C 3,3 C 1,1 C 97 % 1006,6 hPa 0,0 l/m 0 min 0 min 0 W/m 0,0 km/h (0 Bft) 97,87 %
12.11.2023 01:44 4,3 C 3,3 C 1,1 C 97 % 1006,6 hPa 0,0 l/m 0 min 0 min 0 W/m 0,0 km/h (0 Bft) 97,87 %
12.11.2023 01:46 4,3 C 3,3 C 1,1 C 97 % 1006,5 hPa 0,0 l/m 0 min 0 min 0 W/m 3,2 km/h (1 Bft) 95,74 %
12.11.2023 01:48 4,3 C 3,3 C 1,1 C 97 % 1006,5 hPa 0,0 l/m 0 min 0 min 0 W/m 0,0 km/h (0 Bft) 93,62 %
12.11.2023 01:50 4,2 C 3,3 C 1,1 C 97 % 1006,5 hPa 0,0 l/m 0 min 0 min 0 W/m 3,2 km/h (1 Bft) 95,74 %
12.11.2023 01:52 4,2 C 3,3 C 1,1 C 97 % 1006,5 hPa 0,0 l/m 0 min 0 min 0 W/m 0,0 km/h (0 Bft) 95,65 %
12.11.2023 01:54 4,2 C 3,3 C 1,1 C 97 % 1006,4 hPa 0,0 l/m 0 min 0 min 0 W/m 3,2 km/h (1 Bft) 93,62 %
12.11.2023 01:56 4,2 C 3,3 C 1,1 C 97 % 1006,5 hPa 0,0 l/m 0 min 0 min 0 W/m 3,2 km/h (1 Bft) 93,62 %
12.11.2023 01:58 4,2 C 3,3 C 1,1 C 97 % 1006,5 hPa 0,0 l/m 0 min 0 min 0 W/m 3,2 km/h (1 Bft) 95,12 %
12.11.2023 02:00 4,2 C 3,3 C 1,1 C 97 % 1006,5 hPa 0,0 l/m 0 min 0 min 0 W/m 0,0 km/h (0 Bft) 93,62 %
12.11.2023 02:02 4,1 C 3,3 C 1,1 C 97 % 1006,5 hPa 0,0 l/m 0 min 0 min 0 W/m 3,2 km/h (1 Bft) 93,62 %
12.11.2023 02:04 4,1 C 3,3 C 1,1 C 97 % 1006,5 hPa 0,0 l/m 0 min 0 min 0 W/m 0,0 km/h (0 Bft) 91,49 %
12.11.2023 02:06 4,1 C 3,3 C 1,1 C 97 % 1006,5 hPa 0,0 l/m 0 min 0 min 0 W/m 3,2 km/h (1 Bft) 96,61 %
12.11.2023 02:08 4,1 C 3,3 C 1,1 C 97 % 1006,5 hPa 0,0 l/m 0 min 0 min 0 W/m 3,2 km/h (1 Bft) 91,67 %
12.11.2023 02:10 4,1 C 3,3 C 1,1 C 97 % 1006,5 hPa 0,0 l/m 0 min 0 min 0 W/m 3,2 km/h (1 Bft) 53,33 %
12.11.2023 02:12 4,0 C 3,3 C 1,1 C 97 % 1006,5 hPa 0,0 l/m 0 min 0 min 0 W/m 0,0 km/h (0 Bft) 93,48 %
12.11.2023 02:14 4,0 C 3,3 C 1,1 C 97 % 1006,5 hPa 0,0 l/m 0 min 0 min 0 W/m 3,2 km/h (1 Bft) 91,49 %
12.11.2023 02:16 3,9 C 3,3 C 0,6 C 97 % 1006,5 hPa 0,0 l/m 0 min 0 min 0 W/m 6,4 km/h (2 Bft) 93,62 %
12.11.2023 02:18 3,9 C 3,3 C 0,6 C 97 % 1006,5 hPa 0,0 l/m 0 min 0 min 0 W/m 0,0 km/h (0 Bft) 95,74 %
12.11.2023 02:20 3,9 C 3,3 C 0,6 C 97 % 1006,5 hPa 0,0 l/m 0 min 0 min 0 W/m 0,0 km/h (0 Bft) 95,74 %
12.11.2023 02:22 3,9 C 2,8 C 0,6 C 97 % 1006,5 hPa 0,0 l/m 0 min 0 min 0 W/m 0,0 km/h (0 Bft) 93,48 %
12.11.2023 02:24 3,8 C 2,8 C 0,6 C 97 % 1006,5 hPa 0,0 l/m 0 min 0 min 0 W/m 0,0 km/h (0 Bft) 93,62 %
12.11.2023 02:26 3,8 C 2,8 C 0,6 C 97 % 1006,5 hPa 0,0 l/m 0 min 0 min 0 W/m 0,0 km/h (0 Bft) 93,62 %
12.11.2023 02:28 3,8 C 2,8 C 0,6 C 97 % 1006,4 hPa 0,0 l/m 0 min 0 min 0 W/m 0,0 km/h (0 Bft) 97,87 %
12.11.2023 02:30 3,8 C 2,8 C 0,6 C 97 % 1006,5 hPa 0,0 l/m 0 min 0 min 0 W/m 0,0 km/h (0 Bft) 100,00 %
12.11.2023 02:32 3,7 C 2,8 C 0,6 C 97 % 1006,5 hPa 0,0 l/m 0 min 0 min 0 W/m 0,0 km/h (0 Bft) 97,83 %
12.11.2023 02:34 3,7 C 2,8 C 0,6 C 97 % 1006,5 hPa 0,0 l/m 0 min 0 min 0 W/m 3,2 km/h (1 Bft) 91,49 %
12.11.2023 02:36 3,7 C 2,8 C 0,6 C 97 % 1006,5 hPa 0,0 l/m 0 min 0 min 0 W/m 0,0 km/h (0 Bft) 100,00 %
12.11.2023 02:38 3,6 C 2,8 C 0,6 C 97 % 1006,5 hPa 0,0 l/m 0 min 0 min 0 W/m 3,2 km/h (1 Bft) 100,00 %
12.11.2023 02:40 3,6 C 2,8 C 0,6 C 97 % 1006,5 hPa 0,0 l/m 0 min 0 min 0 W/m 3,2 km/h (1 Bft) 97,87 %
12.11.2023 02:42 3,6 C 2,8 C 0,6 C 97 % 1006,5 hPa 0,0 l/m 0 min 0 min 0 W/m 0,0 km/h (0 Bft) 100,00 %
12.11.2023 02:44 3,6 C 2,8 C 0,6 C 97 % 1006,5 hPa 0,0 l/m 0 min 0 min 0 W/m 3,2 km/h (1 Bft) 100,00 %
12.11.2023 02:46 3,6 C 2,8 C 0,6 C 97 % 1006,5 hPa 0,0 l/m 0 min 0 min 0 W/m 0,0 km/h (0 Bft) 100,00 %
12.11.2023 02:48 3,6 C 2,8 C 0,6 C 97 % 1006,5 hPa 0,0 l/m 0 min 0 min 0 W/m 0,0 km/h (0 Bft) 95,74 %
12.11.2023 02:50 3,6 C 2,8 C 0,6 C 97 % 1006,5 hPa 0,0 l/m 0 min 0 min 0 W/m 0,0 km/h (0 Bft) 97,87 %
12.11.2023 02:52 3,5 C 2,8 C 0,6 C 97 % 1006,5 hPa 0,0 l/m 0 min 0 min 0 W/m 0,0 km/h (0 Bft) 100,00 %
12.11.2023 02:54 3,5 C 2,8 C 0,6 C 97 % 1006,5 hPa 0,0 l/m 0 min 0 min 0 W/m 0,0 km/h (0 Bft) 100,00 %
12.11.2023 02:56 3,5 C 2,8 C 0,6 C 97 % 1006,5 hPa 0,0 l/m 0 min 0 min 0 W/m 0,0 km/h (0 Bft) 97,83 %
12.11.2023 02:58 3,5 C 2,8 C 0,6 C 97 % 1006,5 hPa 0,0 l/m 0 min 0 min 0 W/m 0,0 km/h (0 Bft) 100,00 %
12.11.2023 03:00 3,4 C 2,8 C 0,6 C 97 % 1006,5 hPa 0,0 l/m 0 min 0 min 0 W/m 0,0 km/h (0 Bft) 100,00 %
12.11.2023 03:02 3,4 C 2,8 C 0,6 C 97 % 1006,4 hPa 0,0 l/m 0 min 0 min 0 W/m 0,0 km/h (0 Bft) 100,00 %
12.11.2023 03:04 3,4 C 2,2 C 0,0 C 97 % 1006,4 hPa 0,0 l/m 0 min 0 min 0 W/m 0,0 km/h (0 Bft) 100,00 %
12.11.2023 03:08 3,4 C 2,2 C 0,0 C 97 % 1006,4 hPa 0,0 l/m 0 min 0 min 0 W/m 0,0 km/h (0 Bft) 100,00 %
12.11.2023 03:09 3,4 C 2,2 C 0,0 C 97 % 1006,4 hPa 0,0 l/m 0 min 0 min 0 W/m 0,0 km/h (0 Bft) 100,00 %
12.11.2023 03:10 3,4 C 2,2 C 0,0 C 97 % 1006,4 hPa 0,0 l/m 0 min 0 min 0 W/m 0,0 km/h (0 Bft) 100,00 %
12.11.2023 03:14 3,3 C 2,2 C 0,0 C 97 % 1006,4 hPa 0,0 l/m 0 min 0 min 0 W/m 0,0 km/h (0 Bft) 100,00 %
12.11.2023 03:16 3,3 C 2,2 C 0,0 C 97 % 1006,4 hPa 0,0 l/m 0 min 0 min 0 W/m 0,0 km/h (0 Bft) 97,87 %
12.11.2023 03:18 3,3 C 2,2 C 0,0 C 97 % 1006,4 hPa 0,0 l/m 0 min 0 min 0 W/m 0,0 km/h (0 Bft) 100,00 %
12.11.2023 03:20 3,2 C 2,2 C 0,0 C 97 % 1006,4 hPa 0,0 l/m 0 min 0 min 0 W/m 0,0 km/h (0 Bft) 100,00 %
12.11.2023 03:22 3,2 C 2,2 C 0,0 C 97 % 1006,5 hPa 0,0 l/m 0 min 0 min 0 W/m 0,0 km/h (0 Bft) 100,00 %
12.11.2023 03:24 3,2 C 2,2 C 0,0 C 97 % 1006,5 hPa 0,0 l/m 0 min 0 min 0 W/m 0,0 km/h (0 Bft) 97,87 %
12.11.2023 03:26 3,1 C 2,2 C 0,0 C 97 % 1006,5 hPa 0,0 l/m 0 min 0 min 0 W/m 0,0 km/h (0 Bft) 100,00 %
12.11.2023 03:28 3,1 C 2,2 C 0,0 C 97 % 1006,5 hPa 0,0 l/m 0 min 0 min 0 W/m 0,0 km/h (0 Bft) 100,00 %
12.11.2023 03:30 3,1 C 2,2 C 0,0 C 97 % 1006,5 hPa 0,0 l/m 0 min 0 min 0 W/m 0,0 km/h (0 Bft) 100,00 %
12.11.2023 03:32 3,1 C 2,2 C 0,0 C 97 % 1006,5 hPa 0,0 l/m 0 min 0 min 0 W/m 0,0 km/h (0 Bft) 100,00 %
12.11.2023 03:34 3,1 C 2,2 C 0,0 C 97 % 1006,5 hPa 0,0 l/m 0 min 0 min 0 W/m 0,0 km/h (0 Bft) 100,00 %
12.11.2023 03:36 3,1 C 2,2 C 0,0 C 97 % 1006,5 hPa 0,0 l/m 0 min 0 min 0 W/m 0,0 km/h (0 Bft) 100,00 %
12.11.2023 03:38 3,0 C 2,2 C 0,0 C 97 % 1006,4 hPa 0,0 l/m 0 min 0 min 0 W/m 0,0 km/h (0 Bft) 97,87 %
12.11.2023 03:40 3,0 C 2,2 C 0,0 C 97 % 1006,5 hPa 0,0 l/m 0 min 0 min 0 W/m 0,0 km/h (0 Bft) 93,62 %
12.11.2023 03:42 3,0 C 2,2 C 0,0 C 97 % 1006,5 hPa 0,0 l/m 0 min 0 min 0 W/m 0,0 km/h (0 Bft) 97,87 %
12.11.2023 03:44 3,0 C 2,2 C 0,0 C 97 % 1006,5 hPa 0,0 l/m 0 min 0 min 0 W/m 0,0 km/h (0 Bft) 97,87 %
12.11.2023 03:46 2,9 C 2,2 C 0,0 C 97 % 1006,5 hPa 0,0 l/m 0 min 0 min 0 W/m 0,0 km/h (0 Bft) 97,87 %
12.11.2023 03:48 2,9 C 2,2 C 0,0 C 97 % 1006,5 hPa 0,0 l/m 0 min 0 min 0 W/m 0,0 km/h (0 Bft) 94,29 %
12.11.2023 03:50 2,9 C 2,2 C 0,0 C 97 % 1006,5 hPa 0,0 l/m 0 min 0 min 0 W/m 0,0 km/h (0 Bft) 96,61 %
12.11.2023 03:52 2,9 C 2,2 C 0,0 C 97 % 1006,5 hPa 0,0 l/m 0 min 0 min 0 W/m 0,0 km/h (0 Bft) 97,83 %
12.11.2023 03:54 2,9 C 2,2 C 0,0 C 97 % 1006,5 hPa 0,0 l/m 0 min 0 min 0 W/m 0,0 km/h (0 Bft) 97,22 %
12.11.2023 03:56 2,9 C 2,2 C 0,0 C 97 % 1006,4 hPa 0,0 l/m 0 min 0 min 0 W/m 0,0 km/h (0 Bft) 97,87 %
12.11.2023 03:58 2,8 C 2,2 C 0,0 C 97 % 1006,5 hPa 0,0 l/m 0 min 0 min 0 W/m 0,0 km/h (0 Bft) 95,74 %
12.11.2023 04:00 2,8 C 1,7 C 0,0 C 97 % 1006,4 hPa 0,0 l/m 0 min 0 min 0 W/m 0,0 km/h (0 Bft) 97,87 %
12.11.2023 04:02 2,8 C 1,7 C 0,0 C 97 % 1006,5 hPa 0,0 l/m 0 min 0 min 0 W/m 0,0 km/h (0 Bft) 95,74 %
12.11.2023 04:04 2,8 C 1,7 C 0,0 C 97 % 1006,5 hPa 0,0 l/m 0 min 0 min 0 W/m 0,0 km/h (0 Bft) 94,23 %
12.11.2023 04:06 2,8 C 1,7 C -0,6 C 97 % 1006,4 hPa 0,0 l/m 0 min 0 min 0 W/m 0,0 km/h (0 Bft) 95,74 %
12.11.2023 04:08 2,8 C 1,7 C 0,0 C 97 % 1006,4 hPa 0,0 l/m 0 min 0 min 0 W/m 0,0 km/h (0 Bft) 95,74 %
12.11.2023 04:10 2,8 C 1,7 C 0,0 C 97 % 1006,4 hPa 0,0 l/m 0 min 0 min 0 W/m 3,2 km/h (1 Bft) 95,74 %
12.11.2023 04:12 2,7 C 1,7 C 0,0 C 97 % 1006,4 hPa 0,0 l/m 0 min 0 min 0 W/m 3,2 km/h (1 Bft) 95,74 %
12.11.2023 04:14 2,7 C 1,7 C 0,0 C 97 % 1006,4 hPa 0,0 l/m 0 min 0 min 0 W/m 3,2 km/h (1 Bft) 97,87 %
12.11.2023 04:16 2,7 C 1,7 C 0,0 C 97 % 1006,4 hPa 0,0 l/m 0 min 0 min 0 W/m 0,0 km/h (0 Bft) 93,48 %
12.11.2023 04:18 2,7 C 1,7 C 0,0 C 97 % 1006,4 hPa 0,0 l/m 0 min 0 min 0 W/m 0,0 km/h (0 Bft) 97,87 %
12.11.2023 04:20 2,7 C 1,7 C 0,0 C 97 % 1006,4 hPa 0,0 l/m 0 min 0 min 0 W/m 0,0 km/h (0 Bft) 95,74 %
12.11.2023 04:22 2,7 C 1,7 C 0,0 C 97 % 1006,4 hPa 0,0 l/m 0 min 0 min 0 W/m 0,0 km/h (0 Bft) 95,74 %
12.11.2023 04:24 2,6 C 1,7 C 0,0 C 97 % 1006,4 hPa 0,0 l/m 0 min 0 min 0 W/m 0,0 km/h (0 Bft) 97,87 %
12.11.2023 04:26 2,6 C 1,7 C 0,0 C 97 % 1006,4 hPa 0,0 l/m 0 min 0 min 0 W/m 0,0 km/h (0 Bft) 97,87 %
12.11.2023 04:28 2,6 C 1,7 C 0,0 C 97 % 1006,4 hPa 0,0 l/m 0 min 0 min 0 W/m 0,0 km/h (0 Bft) 97,87 %
12.11.2023 04:30 2,6 C 1,7 C 0,0 C 97 % 1006,4 hPa 0,0 l/m 0 min 0 min 0 W/m 0,0 km/h (0 Bft) 97,83 %
12.11.2023 04:32 2,6 C 1,7 C 0,0 C 97 % 1006,4 hPa 0,0 l/m 0 min 0 min 0 W/m 0,0 km/h (0 Bft) 97,87 %
12.11.2023 04:34 2,6 C 2,2 C 0,0 C 97 % 1006,3 hPa 0,0 l/m 0 min 0 min 0 W/m 0,0 km/h (0 Bft) 97,87 %
12.11.2023 04:36 2,6 C 1,7 C 0,0 C 97 % 1006,3 hPa 0,0 l/m 0 min 0 min 0 W/m 0,0 km/h (0 Bft) 97,87 %
12.11.2023 04:38 2,6 C 1,7 C 0,0 C 97 % 1006,3 hPa 0,0 l/m 0 min 0 min 0 W/m 0,0 km/h (0 Bft) 97,87 %
12.11.2023 04:40 2,6 C 1,7 C 0,0 C 97 % 1006,2 hPa 0,0 l/m 0 min 0 min 0 W/m 0,0 km/h (0 Bft) 100,00 %
12.11.2023 04:42 2,6 C 1,7 C 0,0 C 97 % 1006,3 hPa 0,0 l/m 0 min 0 min 0 W/m 0,0 km/h (0 Bft) 100,00 %
12.11.2023 04:44 2,6 C 1,7 C 0,0 C 97 % 1006,2 hPa 0,0 l/m 0 min 0 min 0 W/m 0,0 km/h (0 Bft) 100,00 %
12.11.2023 04:46 2,6 C 1,7 C 0,0 C 97 % 1006,3 hPa 0,0 l/m 0 min 0 min 0 W/m 0,0 km/h (0 Bft) 100,00 %
12.11.2023 04:48 2,6 C 1,7 C -0,6 C 97 % 1006,2 hPa 0,0 l/m 0 min 0 min 0 W/m 0,0 km/h (0 Bft) 100,00 %
12.11.2023 04:50 2,6 C 1,7 C -0,6 C 97 % 1006,3 hPa 0,0 l/m 0 min 0 min 0 W/m 0,0 km/h (0 Bft) 100,00 %
12.11.2023 04:52 2,6 C 1,7 C -0,6 C 97 % 1006,3 hPa 0,0 l/m 0 min 0 min 0 W/m 0,0 km/h (0 Bft) 97,87 %
12.11.2023 04:54 2,5 C 1,7 C -0,6 C 97 % 1006,3 hPa 0,0 l/m 0 min 0 min 0 W/m 0,0 km/h (0 Bft) 97,87 %
12.11.2023 04:56 2,5 C 1,7 C -0,6 C 97 % 1006,3 hPa 0,0 l/m 0 min 0 min 0 W/m 0,0 km/h (0 Bft) 97,96 %
12.11.2023 04:58 2,5 C 1,7 C -0,6 C 97 % 1006,3 hPa 0,0 l/m 0 min 0 min 0 W/m 0,0 km/h (0 Bft) 97,67 %
12.11.2023 05:00 2,4 C 1,7 C -0,6 C 97 % 1006,2 hPa 0,0 l/m 0 min 0 min 0 W/m 0,0 km/h (0 Bft) 97,87 %
12.11.2023 05:02 2,4 C 1,7 C -0,6 C 97 % 1006,2 hPa 0,0 l/m 0 min 0 min 0 W/m 0,0 km/h (0 Bft) 97,87 %
12.11.2023 05:04 2,4 C 1,7 C -0,6 C 97 % 1006,1 hPa 0,0 l/m 0 min 0 min 0 W/m 0,0 km/h (0 Bft) 96,15 %
12.11.2023 05:08 2,4 C 1,7 C -0,6 C 97 % 1006,1 hPa 0,0 l/m 0 min 0 min 0 W/m 0,0 km/h (0 Bft) 97,89 %
12.11.2023 05:09 2,4 C 1,7 C 0,0 C 97 % 1006,1 hPa 0,0 l/m 0 min 0 min 0 W/m 0,0 km/h (0 Bft) 100,00 %
12.11.2023 05:10 2,4 C 1,7 C 0,0 C 97 % 1006,1 hPa 0,0 l/m 0 min 0 min 0 W/m 0,0 km/h (0 Bft) 99,12 %
12.11.2023 05:14 2,5 C 2,2 C 0,0 C 97 % 1006,2 hPa 0,0 l/m 0 min 0 min 0 W/m 0,0 km/h (0 Bft) 97,96 %
12.11.2023 05:16 2,6 C 2,2 C 0,0 C 97 % 1006,2 hPa 0,0 l/m 0 min 0 min 0 W/m 0,0 km/h (0 Bft) 97,83 %
12.11.2023 05:18 2,6 C 2,2 C 0,0 C 97 % 1006,1 hPa 0,0 l/m 0 min 0 min 0 W/m 0,0 km/h (0 Bft) 95,83 %
12.11.2023 05:20 2,6 C 2,2 C 0,0 C 97 % 1006,1 hPa 0,0 l/m 0 min 0 min 0 W/m 0,0 km/h (0 Bft) 93,48 %
12.11.2023 05:22 2,6 C 2,2 C 0,0 C 97 % 1006,1 hPa 0,0 l/m 0 min 0 min 0 W/m 0,0 km/h (0 Bft) 97,87 %
12.11.2023 05:24 2,6 C 2,2 C 0,0 C 97 % 1006,1 hPa 0,0 l/m 0 min 0 min 0 W/m 3,2 km/h (1 Bft) 93,62 %
12.11.2023 05:26 2,7 C 2,2 C 0,0 C 97 % 1006,1 hPa 0,0 l/m 0 min 0 min 0 W/m 0,0 km/h (0 Bft) 95,74 %
12.11.2023 05:28 2,7 C 2,2 C 0,0 C 97 % 1006,1 hPa 0,0 l/m 0 min 0 min 0 W/m 0,0 km/h (0 Bft) 95,74 %
12.11.2023 05:30 2,7 C 2,2 C 0,0 C 97 % 1006,2 hPa 0,0 l/m 0 min 0 min 0 W/m 0,0 km/h (0 Bft) 93,62 %
12.11.2023 05:32 2,7 C 2,2 C 0,0 C 97 % 1006,1 hPa 0,0 l/m 0 min 0 min 0 W/m 0,0 km/h (0 Bft) 95,74 %
12.11.2023 05:34 2,7 C 2,2 C 0,0 C 97 % 1006,1 hPa 0,0 l/m 0 min 0 min 0 W/m 0,0 km/h (0 Bft) 95,74 %
12.11.2023 05:36 2,8 C 2,2 C 0,0 C 97 % 1006,1 hPa 0,0 l/m 0 min 0 min 0 W/m 0,0 km/h (0 Bft) 95,65 %
12.11.2023 05:38 2,8 C 2,2 C 0,0 C 97 % 1006,1 hPa 0,0 l/m 0 min 0 min 0 W/m 0,0 km/h (0 Bft) 95,74 %
12.11.2023 05:40 2,8 C 2,2 C 0,6 C 97 % 1006,1 hPa 0,0 l/m 0 min 0 min 0 W/m 0,0 km/h (0 Bft) 95,74 %
12.11.2023 05:42 2,8 C 2,2 C 0,6 C 97 % 1006,2 hPa 0,0 l/m 0 min 0 min 0 W/m 0,0 km/h (0 Bft) 91,49 %
12.11.2023 05:44 2,8 C 2,2 C 0,6 C 97 % 1006,2 hPa 0,0 l/m 0 min 0 min 0 W/m 0,0 km/h (0 Bft) 95,74 %
12.11.2023 05:46 2,8 C 2,2 C 0,6 C 97 % 1006,2 hPa 0,0 l/m 0 min 0 min 0 W/m 0,0 km/h (0 Bft) 97,87 %
12.11.2023 05:48 2,8 C 2,2 C 0,6 C 97 % 1006,1 hPa 0,0 l/m 0 min 0 min 0 W/m 0,0 km/h (0 Bft) 97,87 %
12.11.2023 05:50 2,9 C 2,2 C 0,6 C 97 % 1006,2 hPa 0,0 l/m 0 min 0 min 0 W/m 0,0 km/h (0 Bft) 97,83 %
12.11.2023 05:52 2,8 C 2,2 C 0,0 C 97 % 1006,2 hPa 0,0 l/m 0 min 0 min 0 W/m 0,0 km/h (0 Bft) 100,00 %
12.11.2023 05:54 2,9 C 2,2 C 0,0 C 97 % 1006,2 hPa 0,0 l/m 0 min 0 min 0 W/m 0,0 km/h (0 Bft) 97,87 %
12.11.2023 05:56 2,9 C 2,2 C 0,6 C 97 % 1006,2 hPa 0,0 l/m 0 min 0 min 0 W/m 3,2 km/h (1 Bft) 100,00 %
12.11.2023 05:58 2,9 C 2,2 C 0,6 C 97 % 1006,2 hPa 0,0 l/m 0 min 0 min 0 W/m 3,2 km/h (1 Bft) 97,83 %
12.11.2023 06:00 2,9 C 2,2 C 0,6 C 97 % 1006,2 hPa 0,0 l/m 0 min 0 min 0 W/m 0,0 km/h (0 Bft) 100,00 %
12.11.2023 06:02 2,9 C 2,2 C 0,6 C 97 % 1006,2 hPa 0,0 l/m 0 min 0 min 0 W/m 3,2 km/h (1 Bft) 97,87 %
12.11.2023 06:04 2,9 C 2,8 C 0,6 C 97 % 1006,2 hPa 0,0 l/m 0 min 0 min 0 W/m 3,2 km/h (1 Bft) 100,00 %
12.11.2023 06:08 3,0 C 2,8 C 0,6 C 97 % 1006,3 hPa 0,0 l/m 0 min 0 min 0 W/m 0,0 km/h (0 Bft) 97,14 %
12.11.2023 06:10 3,1 C 2,8 C 0,6 C 97 % 1006,2 hPa 0,0 l/m 0 min 0 min 0 W/m 0,0 km/h (0 Bft) 100,00 %
12.11.2023 06:12 3,1 C 2,8 C 0,6 C 97 % 1006,2 hPa 0,0 l/m 0 min 0 min 0 W/m 3,2 km/h (1 Bft) 97,87 %
12.11.2023 06:16 3,1 C 2,8 C 0,6 C 97 % 1006,2 hPa 0,0 l/m 0 min 0 min 0 W/m 3,2 km/h (1 Bft) 98,92 %
12.11.2023 06:18 3,1 C 2,8 C 0,6 C 97 % 1006,2 hPa 0,0 l/m 0 min 0 min 0 W/m 3,2 km/h (1 Bft) 100,00 %
12.11.2023 06:20 3,1 C 2,8 C 0,6 C 97 % 1006,2 hPa 0,0 l/m 0 min 0 min 0 W/m 3,2 km/h (1 Bft) 97,87 %
12.11.2023 06:22 3,1 C 2,8 C 0,6 C 97 % 1006,2 hPa 0,0 l/m 0 min 0 min 0 W/m 3,2 km/h (1 Bft) 97,87 %
12.11.2023 06:24 3,1 C 2,8 C 0,6 C 97 % 1006,2 hPa 0,0 l/m 0 min 0 min 0 W/m 0,0 km/h (0 Bft) 97,87 %
12.11.2023 06:26 3,2 C 2,8 C 0,6 C 97 % 1006,3 hPa 0,0 l/m 0 min 0 min 0 W/m 0,0 km/h (0 Bft) 95,74 %
12.11.2023 06:28 3,2 C 2,8 C 0,6 C 97 % 1006,3 hPa 0,0 l/m 0 min 0 min 0 W/m 3,2 km/h (1 Bft) 97,87 %
12.11.2023 06:30 3,2 C 2,2 C 0,6 C 97 % 1006,3 hPa 0,0 l/m 0 min 0 min 0 W/m 0,0 km/h (0 Bft) 97,83 %
12.11.2023 06:32 3,2 C 2,8 C 0,6 C 97 % 1006,3 hPa 0,0 l/m 0 min 0 min 0 W/m 3,2 km/h (1 Bft) 95,74 %
12.11.2023 06:34 3,2 C 2,8 C 0,6 C 97 % 1006,2 hPa 0,0 l/m 0 min 0 min 0 W/m 3,2 km/h (1 Bft) 95,74 %
12.11.2023 06:36 3,2 C 2,8 C 0,6 C 98 % 1006,2 hPa 0,0 l/m 0 min 0 min 0 W/m 3,2 km/h (1 Bft) 93,62 %
12.11.2023 06:38 3,2 C 2,2 C 0,6 C 98 % 1006,3 hPa 0,0 l/m 0 min 0 min 0 W/m 0,0 km/h (0 Bft) 95,74 %
12.11.2023 06:40 3,2 C 2,2 C 0,6 C 98 % 1006,3 hPa 0,0 l/m 0 min 0 min 0 W/m 0,0 km/h (0 Bft) 97,87 %
12.11.2023 06:42 3,2 C 2,2 C 0,6 C 98 % 1006,3 hPa 0,0 l/m 0 min 0 min 0 W/m 3,2 km/h (1 Bft) 97,87 %
12.11.2023 06:44 3,2 C 2,2 C 0,6 C 98 % 1006,3 hPa 0,0 l/m 0 min 0 min 0 W/m 0,0 km/h (0 Bft) 95,74 %
12.11.2023 06:46 3,1 C 2,2 C 0,6 C 98 % 1006,3 hPa 0,0 l/m 0 min 0 min 0 W/m 3,2 km/h (1 Bft) 95,65 %
12.11.2023 06:48 3,1 C 2,2 C 0,6 C 98 % 1006,3 hPa 0,0 l/m 0 min 0 min 0 W/m 3,2 km/h (1 Bft) 97,87 %
12.11.2023 06:50 3,1 C 2,8 C 0,6 C 98 % 1006,3 hPa 0,0 l/m 0 min 0 min 0 W/m 6,4 km/h (2 Bft) 95,74 %
12.11.2023 06:52 3,1 C 2,8 C 0,6 C 98 % 1006,3 hPa 0,0 l/m 0 min 0 min 0 W/m 0,0 km/h (0 Bft) 95,74 %
12.11.2023 06:54 3,1 C 2,8 C 0,6 C 98 % 1006,4 hPa 0,0 l/m 0 min 0 min 0 W/m 0,0 km/h (0 Bft) 97,92 %
12.11.2023 06:56 3,1 C 2,8 C 0,6 C 98 % 1006,4 hPa 0,0 l/m 0 min 0 min 0 W/m 3,2 km/h (1 Bft) 95,65 %
12.11.2023 06:58 3,1 C 2,8 C 0,6 C 98 % 1006,3 hPa 0,0 l/m 0 min 0 min 0 W/m 0,0 km/h (0 Bft) 95,74 %
12.11.2023 07:00 3,1 C 2,8 C 0,6 C 98 % 1006,3 hPa 0,0 l/m 0 min 0 min 0 W/m 0,0 km/h (0 Bft) 97,87 %
12.11.2023 07:02 3,1 C 2,8 C 0,6 C 98 % 1006,3 hPa 0,0 l/m 0 min 0 min 0 W/m 0,0 km/h (0 Bft) 95,83 %
12.11.2023 07:04 3,2 C 2,8 C 0,6 C 98 % 1006,3 hPa 0,0 l/m 0 min 0 min 0 W/m 0,0 km/h (0 Bft) 98,00 %
12.11.2023 07:08 3,2 C 2,8 C 0,6 C 98 % 1006,4 hPa 0,0 l/m 0 min 0 min 0 W/m 3,2 km/h (1 Bft) 96,94 %
12.11.2023 07:09 3,1 C 2,8 C 0,6 C 98 % 1006,4 hPa 0,0 l/m 0 min 0 min 0 W/m 3,2 km/h (1 Bft) 100,00 %
12.11.2023 07:12 3,2 C 2,8 C 0,6 C 98 % 1006,4 hPa 0,0 l/m 0 min 0 min 0 W/m 6,4 km/h (2 Bft) 95,71 %
12.11.2023 07:14 3,2 C 2,8 C 0,6 C 98 % 1006,4 hPa 0,0 l/m 0 min 0 min 0 W/m 3,2 km/h (1 Bft) 95,74 %
12.11.2023 07:16 3,2 C 2,8 C 0,6 C 98 % 1006,5 hPa 0,0 l/m 0 min 0 min 0 W/m 3,2 km/h (1 Bft) 97,87 %
12.11.2023 07:18 3,2 C 2,8 C 0,6 C 98 % 1006,5 hPa 0,0 l/m 0 min 0 min 0 W/m 3,2 km/h (1 Bft) 100,00 %
12.11.2023 07:20 3,2 C 2,8 C 0,6 C 98 % 1006,5 hPa 0,0 l/m 0 min 0 min 0 W/m 3,2 km/h (1 Bft) 93,62 %
12.11.2023 07:22 3,2 C 2,8 C 0,6 C 98 % 1006,5 hPa 0,0 l/m 0 min 0 min 0 W/m 3,2 km/h (1 Bft) 97,83 %
12.11.2023 07:24 3,2 C 2,8 C 0,6 C 98 % 1006,5 hPa 0,0 l/m 0 min 0 min 0 W/m 3,2 km/h (1 Bft) 97,87 %
12.11.2023 07:26 3,2 C 2,8 C 0,6 C 98 % 1006,5 hPa 0,0 l/m 0 min 0 min 0 W/m 3,2 km/h (1 Bft) 95,74 %
12.11.2023 07:28 3,2 C 2,8 C 0,6 C 98 % 1006,5 hPa 0,0 l/m 0 min 0 min 0 W/m 3,2 km/h (1 Bft) 95,74 %
12.11.2023 07:30 3,2 C 2,8 C 0,6 C 98 % 1006,6 hPa 0,0 l/m 0 min 0 min 0 W/m 6,4 km/h (2 Bft) 95,74 %
12.11.2023 07:32 3,2 C 2,8 C 0,6 C 98 % 1006,6 hPa 0,0 l/m 0 min 0 min 0 W/m 3,2 km/h (1 Bft) 97,87 %
12.11.2023 07:34 3,1 C 2,8 C 0,6 C 98 % 1006,6 hPa 0,0 l/m 0 min 0 min 0 W/m 3,2 km/h (1 Bft) 100,00 %
12.11.2023 07:36 3,1 C 2,8 C 0,6 C 98 % 1006,6 hPa 0,0 l/m 0 min 0 min 0 W/m 3,2 km/h (1 Bft) 100,00 %
12.11.2023 07:38 3,1 C 2,2 C 0,6 C 98 % 1006,6 hPa 0,0 l/m 0 min 0 min 0 W/m 3,2 km/h (1 Bft) 100,00 %
12.11.2023 07:40 3,1 C 2,2 C 0,6 C 98 % 1006,6 hPa 0,0 l/m 0 min 0 min 0 W/m 0,0 km/h (0 Bft) 95,74 %
12.11.2023 07:42 3,1 C 2,2 C 0,6 C 98 % 1006,7 hPa 0,0 l/m 0 min 0 min 0 W/m 3,2 km/h (1 Bft) 100,00 %
12.11.2023 07:44 3,1 C 2,2 C 0,6 C 98 % 1006,7 hPa 0,0 l/m 0 min 0 min 0 W/m 3,2 km/h (1 Bft) 100,00 %
12.11.2023 07:46 3,1 C 2,2 C 0,6 C 98 % 1006,7 hPa 0,0 l/m 0 min 0 min 0 W/m 3,2 km/h (1 Bft) 97,87 %
12.11.2023 07:48 3,1 C 2,2 C 0,6 C 98 % 1006,7 hPa 0,0 l/m 0 min 0 min 0 W/m 3,2 km/h (1 Bft) 100,00 %
12.11.2023 07:50 3,1 C 2,2 C 0,6 C 98 % 1006,7 hPa 0,0 l/m 0 min 0 min 3 W/m 3,2 km/h (1 Bft) 100,00 %
12.11.2023 07:52 3,1 C 2,2 C 0,6 C 98 % 1006,7 hPa 0,0 l/m 0 min 0 min 5 W/m 3,2 km/h (1 Bft) 100,00 %
12.11.2023 07:54 3,1 C 2,2 C 0,6 C 98 % 1006,7 hPa 0,0 l/m 0 min 0 min 5 W/m 3,2 km/h (1 Bft) 97,87 %
12.11.2023 07:56 3,1 C 2,2 C 0,6 C 98 % 1006,7 hPa 0,0 l/m 0 min 0 min 5 W/m 3,2 km/h (1 Bft) 100,00 %
12.11.2023 07:58 3,0 C 2,2 C 0,0 C 98 % 1006,8 hPa 0,0 l/m 0 min 0 min 6 W/m 3,2 km/h (1 Bft) 100,00 %
12.11.2023 08:00 3,0 C 2,2 C 0,0 C 98 % 1006,7 hPa 0,0 l/m 0 min 0 min 7 W/m 0,0 km/h (0 Bft) 97,87 %
12.11.2023 08:06 3,0 C 2,2 C 0,6 C 98 % 1006,8 hPa 0,0 l/m 0 min 0 min 8 W/m 3,2 km/h (1 Bft) 97,89 %
12.11.2023 08:08 3,0 C 2,2 C 0,6 C 98 % 1006,8 hPa 0,0 l/m 0 min 0 min 10 W/m 3,2 km/h (1 Bft) 97,83 %
12.11.2023 08:10 3,0 C 2,2 C 0,6 C 98 % 1006,8 hPa 0,0 l/m 0 min 0 min 11 W/m 3,2 km/h (1 Bft) 100,00 %
12.11.2023 08:12 3,0 C 2,2 C 0,6 C 98 % 1006,9 hPa 0,0 l/m 0 min 0 min 11 W/m 0,0 km/h (0 Bft) 51,22 %
12.11.2023 08:14 3,0 C 2,2 C 0,6 C 98 % 1006,9 hPa 0,0 l/m 0 min 0 min 11 W/m 6,4 km/h (2 Bft) 100,00 %
12.11.2023 08:16 3,0 C 2,8 C 0,6 C 98 % 1006,9 hPa 0,0 l/m 0 min 0 min 12 W/m 3,2 km/h (1 Bft) 93,62 %
12.11.2023 08:18 3,0 C 2,8 C 0,6 C 98 % 1006,9 hPa 0,0 l/m 0 min 0 min 12 W/m 3,2 km/h (1 Bft) 97,87 %
12.11.2023 08:20 3,0 C 2,8 C 0,6 C 98 % 1006,9 hPa 0,0 l/m 0 min 0 min 13 W/m 3,2 km/h (1 Bft) 97,87 %
12.11.2023 08:22 3,1 C 2,8 C 0,6 C 98 % 1007,0 hPa 0,0 l/m 0 min 0 min 14 W/m 3,2 km/h (1 Bft) 97,83 %
12.11.2023 08:24 3,1 C 2,8 C 0,6 C 98 % 1007,0 hPa 0,0 l/m 0 min 0 min 14 W/m 3,2 km/h (1 Bft) 95,74 %
12.11.2023 08:26 3,1 C 2,8 C 0,6 C 98 % 1007,0 hPa 0,0 l/m 0 min 0 min 15 W/m 3,2 km/h (1 Bft) 97,87 %
12.11.2023 08:28 3,1 C 2,8 C 0,6 C 98 % 1007,0 hPa 0,0 l/m 0 min 0 min 16 W/m 3,2 km/h (1 Bft) 97,87 %
12.11.2023 08:30 3,1 C 2,8 C 0,6 C 98 % 1007,0 hPa 0,0 l/m 0 min 0 min 16 W/m 6,4 km/h (2 Bft) 97,87 %
12.11.2023 08:32 3,1 C 2,8 C 0,6 C 98 % 1007,1 hPa 0,0 l/m 0 min 0 min 18 W/m 3,2 km/h (1 Bft) 97,87 %
12.11.2023 08:34 3,1 C 2,8 C 0,6 C 98 % 1007,1 hPa 0,0 l/m 0 min 0 min 18 W/m 3,2 km/h (1 Bft) 93,62 %
12.11.2023 08:36 3,1 C 2,8 C 0,6 C 98 % 1007,1 hPa 0,0 l/m 0 min 0 min 18 W/m 3,2 km/h (1 Bft) 93,62 %
12.11.2023 08:38 3,2 C 2,8 C 0,6 C 98 % 1007,1 hPa 0,0 l/m 0 min 0 min 19 W/m 6,4 km/h (2 Bft) 95,65 %
12.11.2023 08:40 3,2 C 2,8 C 0,6 C 98 % 1007,1 hPa 0,0 l/m 0 min 0 min 19 W/m 6,4 km/h (2 Bft) 97,87 %
12.11.2023 08:42 3,2 C 2,8 C 0,6 C 98 % 1007,1 hPa 0,0 l/m 0 min 0 min 19 W/m 12,9 km/h (3 Bft) 97,87 %
12.11.2023 08:44 3,2 C 2,8 C 0,6 C 98 % 1007,1 hPa 0,0 l/m 0 min 0 min 21 W/m 3,2 km/h (1 Bft) 95,74 %
12.11.2023 08:46 3,2 C 2,8 C 0,6 C 98 % 1007,1 hPa 0,0 l/m 0 min 0 min 21 W/m 3,2 km/h (1 Bft) 89,36 %
12.11.2023 08:48 3,2 C 2,8 C 0,6 C 98 % 1007,1 hPa 0,0 l/m 0 min 0 min 21 W/m 3,2 km/h (1 Bft) 93,62 %
12.11.2023 08:50 3,2 C 2,8 C 0,6 C 98 % 1007,2 hPa 0,0 l/m 0 min 0 min 21 W/m 3,2 km/h (1 Bft) 93,62 %
12.11.2023 08:52 3,3 C 2,8 C 0,6 C 98 % 1007,2 hPa 0,0 l/m 0 min 0 min 22 W/m 6,4 km/h (2 Bft) 91,30 %
12.11.2023 08:54 3,3 C 2,8 C 0,6 C 98 % 1007,2 hPa 0,0 l/m 0 min 0 min 23 W/m 6,4 km/h (2 Bft) 91,49 %
12.11.2023 08:56 3,3 C 2,8 C 0,6 C 98 % 1007,2 hPa 0,0 l/m 0 min 0 min 23 W/m 3,2 km/h (1 Bft) 93,75 %
12.11.2023 08:58 3,3 C 2,8 C 0,6 C 98 % 1007,2 hPa 0,0 l/m 0 min 0 min 23 W/m 3,2 km/h (1 Bft) 93,33 %
12.11.2023 09:00 3,3 C 2,8 C 0,6 C 98 % 1007,2 hPa 0,0 l/m 0 min 0 min 24 W/m 3,2 km/h (1 Bft) 93,62 %
12.11.2023 09:02 3,3 C 3,3 C 0,6 C 98 % 1007,2 hPa 0,0 l/m 0 min 0 min 25 W/m 6,4 km/h (2 Bft) 91,49 %
12.11.2023 09:04 3,3 C 3,3 C 0,6 C 98 % 1007,2 hPa 0,0 l/m 0 min 0 min 25 W/m 6,4 km/h (2 Bft) 92,86 %
12.11.2023 09:08 3,4 C 3,3 C 0,6 C 98 % 1007,2 hPa 0,0 l/m 0 min 0 min 28 W/m 3,2 km/h (1 Bft) 93,33 %
12.11.2023 09:10 3,4 C 3,3 C 0,6 C 98 % 1007,2 hPa 0,0 l/m 0 min 0 min 62 W/m 3,2 km/h (1 Bft) 94,29 %
12.11.2023 09:12 3,4 C 3,3 C 0,6 C 98 % 1007,3 hPa 0,0 l/m 0 min 0 min 50 W/m 3,2 km/h (1 Bft) 89,36 %
12.11.2023 09:14 3,5 C 3,3 C 1,1 C 98 % 1007,3 hPa 0,0 l/m 0 min 0 min 26 W/m 3,2 km/h (1 Bft) 91,49 %
12.11.2023 09:16 3,6 C 3,3 C 1,1 C 98 % 1007,3 hPa 0,0 l/m 0 min 0 min 28 W/m 6,4 km/h (2 Bft) 97,83 %
12.11.2023 09:18 3,6 C 3,3 C 1,1 C 98 % 1007,3 hPa 0,0 l/m 0 min 0 min 37 W/m 6,4 km/h (2 Bft) 97,87 %
12.11.2023 09:20 3,6 C 3,3 C 1,1 C 98 % 1007,4 hPa 0,0 l/m 0 min 0 min 54 W/m 3,2 km/h (1 Bft) 97,87 %
12.11.2023 09:22 3,7 C 3,9 C 1,1 C 98 % 1007,4 hPa 0,0 l/m 0 min 0 min 33 W/m 9,7 km/h (2 Bft) 95,74 %
12.11.2023 09:24 3,8 C 3,9 C 1,1 C 98 % 1007,4 hPa 0,0 l/m 0 min 0 min 30 W/m 6,4 km/h (2 Bft) 93,62 %
12.11.2023 09:26 3,8 C 3,9 C 1,1 C 98 % 1007,4 hPa 0,0 l/m 0 min 0 min 39 W/m 6,4 km/h (2 Bft) 100,00 %
12.11.2023 09:28 3,9 C 3,9 C 1,1 C 98 % 1007,5 hPa 0,0 l/m 0 min 0 min 43 W/m 6,4 km/h (2 Bft) 100,00 %
12.11.2023 09:30 3,9 C 3,9 C 1,1 C 98 % 1007,4 hPa 0,0 l/m 0 min 0 min 30 W/m 3,2 km/h (1 Bft) 97,87 %
12.11.2023 09:32 4,0 C 3,9 C 1,7 C 98 % 1007,5 hPa 0,0 l/m 0 min 0 min 32 W/m 3,2 km/h (1 Bft) 97,83 %
12.11.2023 09:34 4,1 C 3,9 C 1,7 C 98 % 1007,5 hPa 0,0 l/m 0 min 0 min 32 W/m 3,2 km/h (1 Bft) 100,00 %
12.11.2023 09:36 4,1 C 4,4 C 1,7 C 98 % 1007,5 hPa 0,0 l/m 0 min 0 min 35 W/m 3,2 km/h (1 Bft) 100,00 %
12.11.2023 09:38 4,1 C 4,4 C 1,7 C 98 % 1007,5 hPa 0,0 l/m 0 min 0 min 104 W/m 3,2 km/h (1 Bft) 100,00 %
12.11.2023 09:40 4,2 C 4,4 C 1,7 C 98 % 1007,5 hPa 0,0 l/m 2 min 0 min 193 W/m 3,2 km/h (1 Bft) 100,00 %
12.11.2023 09:42 4,3 C 4,4 C 1,7 C 98 % 1007,5 hPa 0,0 l/m 2 min 0 min 210 W/m 6,4 km/h (2 Bft) 100,00 %
12.11.2023 09:44 4,3 C 4,4 C 1,7 C 98 % 1007,6 hPa 0,0 l/m 2 min 0 min 216 W/m 6,4 km/h (2 Bft) 100,00 %
12.11.2023 09:46 4,4 C 4,4 C 1,7 C 98 % 1007,6 hPa 0,0 l/m 2 min 0 min 216 W/m 6,4 km/h (2 Bft) 97,83 %
12.11.2023 09:48 4,4 C 4,4 C 1,7 C 98 % 1007,6 hPa 0,0 l/m 2 min 0 min 211 W/m 6,4 km/h (2 Bft) 100,00 %
12.11.2023 09:50 4,5 C 5,0 C 1,7 C 98 % 1007,7 hPa 0,0 l/m 2 min 0 min 212 W/m 12,9 km/h (3 Bft) 100,00 %
12.11.2023 09:52 4,6 C 5,0 C 1,7 C 98 % 1007,7 hPa 0,0 l/m 2 min 0 min 190 W/m 6,4 km/h (2 Bft) 100,00 %
12.11.2023 09:54 4,6 C 5,0 C 1,7 C 98 % 1007,7 hPa 0,0 l/m 2 min 0 min 218 W/m 6,4 km/h (2 Bft) 98,21 %
12.11.2023 09:56 4,7 C 5,0 C 1,7 C 98 % 1007,7 hPa 0,0 l/m 2 min 0 min 192 W/m 6,4 km/h (2 Bft) 100,00 %
12.11.2023 09:58 4,8 C 5,6 C 1,7 C 98 % 1007,7 hPa 0,0 l/m 2 min 0 min 142 W/m 6,4 km/h (2 Bft) 97,87 %
12.11.2023 10:00 4,8 C 5,6 C 2,2 C 98 % 1007,7 hPa 0,0 l/m 2 min 0 min 135 W/m 3,2 km/h (1 Bft) 100,00 %
12.11.2023 10:02 4,9 C 6,7 C 2,2 C 98 % 1007,7 hPa 0,0 l/m 2 min 0 min 221 W/m 12,9 km/h (3 Bft) 100,00 %
12.11.2023 10:04 4,9 C 8,3 C 2,2 C 98 % 1007,7 hPa 0,0 l/m 2 min 0 min 252 W/m 12,9 km/h (3 Bft) 100,00 %
12.11.2023 10:08 5,1 C 11,7 C 2,2 C 98 % 1007,7 hPa 0,0 l/m 4 min 0 min 257 W/m 6,4 km/h (2 Bft) 100,00 %
12.11.2023 10:10 5,2 C 12,2 C 2,2 C 98 % 1007,7 hPa 0,0 l/m 2 min 0 min 219 W/m 3,2 km/h (1 Bft) 97,87 %
12.11.2023 10:12 5,3 C 13,3 C 2,2 C 98 % 1007,7 hPa 0,0 l/m 2 min 0 min 205 W/m 3,2 km/h (1 Bft) 100,00 %
12.11.2023 10:14 5,3 C 13,9 C 2,2 C 98 % 1007,7 hPa 0,0 l/m 2 min 0 min 150 W/m 6,4 km/h (2 Bft) 100,00 %
12.11.2023 10:16 5,4 C 13,9 C 2,2 C 98 % 1007,6 hPa 0,0 l/m 0 min 0 min 119 W/m 3,2 km/h (1 Bft) 97,83 %
12.11.2023 10:18 5,5 C 12,8 C 2,2 C 98 % 1007,7 hPa 0,0 l/m 2 min 0 min 170 W/m 6,4 km/h (2 Bft) 100,00 %
12.11.2023 10:20 5,6 C 12,2 C 2,2 C 98 % 1007,6 hPa 0,0 l/m 0 min 0 min 139 W/m 3,2 km/h (1 Bft) 100,00 %
12.11.2023 10:22 5,6 C 11,1 C 2,2 C 98 % 1007,6 hPa 0,0 l/m 2 min 0 min 155 W/m 6,4 km/h (2 Bft) 97,87 %
12.11.2023 10:24 5,6 C 10,0 C 2,2 C 98 % 1007,6 hPa 0,0 l/m 0 min 0 min 126 W/m 12,9 km/h (3 Bft) 100,00 %
12.11.2023 10:26 5,7 C 9,4 C 2,2 C 98 % 1007,6 hPa 0,0 l/m 2 min 0 min 153 W/m 6,4 km/h (2 Bft) 100,00 %
12.11.2023 10:28 5,7 C 8,3 C 2,2 C 98 % 1007,6 hPa 0,0 l/m 0 min 0 min 132 W/m 12,9 km/h (3 Bft) 100,00 %
12.11.2023 10:30 5,7 C 8,9 C 2,2 C 98 % 1007,6 hPa 0,0 l/m 0 min 0 min 141 W/m 3,2 km/h (1 Bft) 100,00 %
12.11.2023 10:32 5,7 C 9,4 C 2,2 C 98 % 1007,6 hPa 0,0 l/m 0 min 0 min 92 W/m 6,4 km/h (2 Bft) 100,00 %
12.11.2023 10:34 5,8 C 10,0 C 2,2 C 98 % 1007,6 hPa 0,0 l/m 0 min 0 min 82 W/m 6,4 km/h (2 Bft) 100,00 %
12.11.2023 10:36 5,8 C 10,0 C 2,8 C 98 % 1007,6 hPa 0,0 l/m 0 min 0 min 65 W/m 6,4 km/h (2 Bft) 100,00 %
12.11.2023 10:38 5,9 C 10,0 C 2,8 C 98 % 1007,6 hPa 0,0 l/m 0 min 0 min 70 W/m 3,2 km/h (1 Bft) 97,87 %
12.11.2023 10:40 5,9 C 9,4 C 2,8 C 98 % 1007,6 hPa 0,0 l/m 0 min 0 min 69 W/m 3,2 km/h (1 Bft) 100,00 %
12.11.2023 10:42 6,1 C 8,9 C 2,8 C 98 % 1007,6 hPa 0,0 l/m 0 min 0 min 125 W/m 3,2 km/h (1 Bft) 100,00 %
12.11.2023 10:44 6,1 C 8,3 C 2,8 C 98 % 1007,6 hPa 0,0 l/m 0 min 0 min 105 W/m 3,2 km/h (1 Bft) 95,74 %
12.11.2023 10:46 6,1 C 8,3 C 2,8 C 98 % 1007,6 hPa 0,0 l/m 0 min 0 min 68 W/m 3,2 km/h (1 Bft) 100,00 %
12.11.2023 10:48 6,2 C 7,8 C 2,8 C 98 % 1007,6 hPa 0,0 l/m 0 min 0 min 57 W/m 3,2 km/h (1 Bft) 100,00 %
12.11.2023 10:50 6,2 C 7,2 C 2,8 C 98 % 1007,6 hPa 0,0 l/m 0 min 0 min 56 W/m 6,4 km/h (2 Bft) 100,00 %
12.11.2023 10:52 6,2 C 6,7 C 2,8 C 98 % 1007,6 hPa 0,0 l/m 0 min 0 min 56 W/m 6,4 km/h (2 Bft) 100,00 %
12.11.2023 10:54 6,2 C 6,7 C 2,8 C 98 % 1007,6 hPa 0,0 l/m 0 min 0 min 55 W/m 3,2 km/h (1 Bft) 100,00 %
12.11.2023 10:56 6,2 C 6,7 C 2,8 C 98 % 1007,6 hPa 0,0 l/m 0 min 0 min 55 W/m 6,4 km/h (2 Bft) 100,00 %
12.11.2023 10:58 6,2 C 6,1 C 2,8 C 98 % 1007,6 hPa 0,0 l/m 0 min 0 min 55 W/m 3,2 km/h (1 Bft) 97,87 %
12.11.2023 11:00 6,1 C 6,1 C 2,8 C 97 % 1007,6 hPa 0,0 l/m 0 min 0 min 52 W/m 6,4 km/h (2 Bft) 97,83 %
12.11.2023 11:02 6,1 C 6,1 C 2,8 C 97 % 1007,6 hPa 0,0 l/m 0 min 0 min 49 W/m 6,4 km/h (2 Bft) 97,87 %
12.11.2023 11:04 6,1 C 6,1 C 2,8 C 97 % 1007,6 hPa 0,0 l/m 0 min 0 min 49 W/m 3,2 km/h (1 Bft) 95,56 %
12.11.2023 11:08 6,1 C 6,1 C 2,8 C 97 % 1007,5 hPa 0,0 l/m 0 min 0 min 51 W/m 6,4 km/h (2 Bft) 96,15 %
12.11.2023 11:09 6,1 C 6,1 C 2,8 C 97 % 1007,5 hPa 0,0 l/m 0 min 0 min 52 W/m 3,2 km/h (1 Bft) 95,65 %
12.11.2023 11:10 6,1 C 6,1 C 2,8 C 97 % 1007,5 hPa 0,0 l/m 0 min 0 min 52 W/m 6,4 km/h (2 Bft) 100,00 %
12.11.2023 11:14 6,2 C 6,1 C 2,8 C 97 % 1007,4 hPa 0,0 l/m 0 min 0 min 52 W/m 0,0 km/h (0 Bft) 97,87 %
12.11.2023 11:16 6,2 C 6,7 C 3,3 C 97 % 1007,4 hPa 0,0 l/m 0 min 0 min 52 W/m 6,4 km/h (2 Bft) 97,87 %
12.11.2023 11:18 6,2 C 6,1 C 3,3 C 97 % 1007,4 hPa 0,0 l/m 0 min 0 min 56 W/m 3,2 km/h (1 Bft) 97,87 %
12.11.2023 11:20 6,2 C 6,1 C 3,3 C 97 % 1007,5 hPa 0,0 l/m 0 min 0 min 61 W/m 6,4 km/h (2 Bft) 97,87 %
12.11.2023 11:22 6,2 C 6,1 C 3,3 C 96 % 1007,5 hPa 0,0 l/m 0 min 0 min 67 W/m 6,4 km/h (2 Bft) 97,83 %
12.11.2023 11:24 6,3 C 6,7 C 3,3 C 96 % 1007,5 hPa 0,0 l/m 0 min 0 min 73 W/m 6,4 km/h (2 Bft) 95,74 %
12.11.2023 11:26 6,3 C 6,7 C 3,3 C 96 % 1007,5 hPa 0,0 l/m 0 min 0 min 77 W/m 3,2 km/h (1 Bft) 59,57 %
12.11.2023 11:28 6,3 C 6,7 C 3,3 C 96 % 1007,5 hPa 0,0 l/m 0 min 0 min 77 W/m 6,4 km/h (2 Bft) 90,00 %
12.11.2023 11:30 6,4 C 6,7 C 3,3 C 96 % 1007,5 hPa 0,0 l/m 0 min 0 min 78 W/m 6,4 km/h (2 Bft) 93,62 %
12.11.2023 11:32 6,4 C 6,7 C 3,3 C 96 % 1007,5 hPa 0,0 l/m 0 min 0 min 78 W/m 3,2 km/h (1 Bft) 93,62 %
12.11.2023 11:34 6,4 C 6,7 C 3,3 C 96 % 1007,5 hPa 0,0 l/m 0 min 0 min 83 W/m 6,4 km/h (2 Bft) 97,87 %
12.11.2023 11:36 6,5 C 6,7 C 3,3 C 96 % 1007,4 hPa 0,0 l/m 0 min 0 min 88 W/m 6,4 km/h (2 Bft) 97,83 %
12.11.2023 11:38 6,5 C 6,7 C 3,3 C 95 % 1007,4 hPa 0,0 l/m 0 min 0 min 92 W/m 6,4 km/h (2 Bft) 95,74 %
12.11.2023 11:40 6,6 C 7,2 C 3,3 C 95 % 1007,4 hPa 0,0 l/m 0 min 0 min 90 W/m 3,2 km/h (1 Bft) 95,74 %
12.11.2023 11:42 6,6 C 7,2 C 3,9 C 95 % 1007,5 hPa 0,0 l/m 0 min 0 min 83 W/m 6,4 km/h (2 Bft) 97,87 %
12.11.2023 11:44 6,6 C 7,2 C 3,9 C 95 % 1007,5 hPa 0,0 l/m 0 min 0 min 77 W/m 3,2 km/h (1 Bft) 97,87 %
12.11.2023 11:46 6,7 C 7,2 C 3,9 C 95 % 1007,5 hPa 0,0 l/m 0 min 0 min 76 W/m 3,2 km/h (1 Bft) 95,74 %
12.11.2023 11:48 6,7 C 7,2 C 3,9 C 95 % 1007,5 hPa 0,0 l/m 0 min 0 min 74 W/m 6,4 km/h (2 Bft) 93,62 %
12.11.2023 11:50 6,8 C 7,2 C 3,9 C 95 % 1007,4 hPa 0,0 l/m 0 min 0 min 72 W/m 3,2 km/h (1 Bft) 95,74 %
12.11.2023 11:52 6,8 C 7,2 C 3,9 C 94 % 1007,4 hPa 0,0 l/m 0 min 0 min 69 W/m 6,4 km/h (2 Bft) 95,65 %
12.11.2023 11:54 6,8 C 7,2 C 3,9 C 95 % 1007,5 hPa 0,0 l/m 0 min 0 min 63 W/m 6,4 km/h (2 Bft) 95,74 %
12.11.2023 11:56 6,9 C 7,2 C 3,9 C 94 % 1007,4 hPa 0,0 l/m 0 min 0 min 60 W/m 6,4 km/h (2 Bft) 96,15 %
12.11.2023 11:58 6,9 C 7,2 C 3,9 C 94 % 1007,5 hPa 0,0 l/m 0 min 0 min 56 W/m 3,2 km/h (1 Bft) 95,74 %
12.11.2023 12:00 7,0 C 7,2 C 3,9 C 94 % 1007,5 hPa 0,0 l/m 0 min 0 min 53 W/m 6,4 km/h (2 Bft) 95,74 %
12.11.2023 12:02 7,0 C 7,2 C 3,9 C 94 % 1007,5 hPa 0,0 l/m 0 min 0 min 57 W/m 6,4 km/h (2 Bft) 97,87 %
12.11.2023 12:04 7,1 C 7,2 C 3,9 C 94 % 1007,5 hPa 0,0 l/m 0 min 0 min 59 W/m 6,4 km/h (2 Bft) 90,91 %
12.11.2023 12:10 7,2 C 7,8 C 3,9 C 93 % 1007,5 hPa 0,0 l/m 0 min 0 min 64 W/m 3,2 km/h (1 Bft) 95,27 %
12.11.2023 12:12 7,3 C 7,8 C 3,9 C 93 % 1007,5 hPa 0,0 l/m 0 min 0 min 72 W/m 3,2 km/h (1 Bft) 95,74 %
12.11.2023 12:16 7,3 C 7,8 C 4,4 C 93 % 1007,5 hPa 0,0 l/m 0 min 0 min 92 W/m 12,9 km/h (3 Bft) 94,62 %
12.11.2023 12:18 7,4 C 7,8 C 4,4 C 93 % 1007,5 hPa 0,0 l/m 0 min 0 min 100 W/m 3,2 km/h (1 Bft) 93,62 %
12.11.2023 12:20 7,5 C 7,8 C 4,4 C 93 % 1007,6 hPa 0,0 l/m 0 min 0 min 82 W/m 6,4 km/h (2 Bft) 93,62 %
12.11.2023 12:22 7,6 C 7,8 C 4,4 C 93 % 1007,5 hPa 0,0 l/m 0 min 0 min 74 W/m 6,4 km/h (2 Bft) 93,62 %
12.11.2023 12:24 7,6 C 7,8 C 4,4 C 92 % 1007,5 hPa 0,0 l/m 0 min 0 min 67 W/m 3,2 km/h (1 Bft) 97,87 %
12.11.2023 12:26 7,6 C 7,8 C 4,4 C 92 % 1007,5 hPa 0,0 l/m 0 min 0 min 67 W/m 6,4 km/h (2 Bft) 100,00 %
12.11.2023 12:28 7,6 C 7,8 C 4,4 C 92 % 1007,5 hPa 0,0 l/m 0 min 0 min 66 W/m 6,4 km/h (2 Bft) 100,00 %
12.11.2023 12:30 7,6 C 7,8 C 4,4 C 91 % 1007,4 hPa 0,0 l/m 0 min 0 min 67 W/m 3,2 km/h (1 Bft) 100,00 %
12.11.2023 12:32 7,6 C 7,8 C 4,4 C 91 % 1007,5 hPa 0,0 l/m 0 min 0 min 86 W/m 9,7 km/h (2 Bft) 97,87 %
12.11.2023 12:34 7,6 C 7,8 C 4,4 C 91 % 1007,5 hPa 0,0 l/m 0 min 0 min 108 W/m 6,4 km/h (2 Bft) 100,00 %
12.11.2023 12:36 7,6 C 7,8 C 4,4 C 91 % 1007,5 hPa 0,0 l/m 0 min 0 min 113 W/m 6,4 km/h (2 Bft) 100,00 %
12.11.2023 12:38 7,7 C 7,8 C 4,4 C 91 % 1007,5 hPa 0,0 l/m 0 min 0 min 94 W/m 6,4 km/h (2 Bft) 97,87 %
12.11.2023 12:40 7,7 C 7,8 C 4,4 C 91 % 1007,5 hPa 0,0 l/m 0 min 0 min 84 W/m 6,4 km/h (2 Bft) 91,18 %
12.11.2023 12:42 7,7 C 7,8 C 4,4 C 91 % 1007,4 hPa 0,0 l/m 0 min 0 min 77 W/m 6,4 km/h (2 Bft) 100,00 %
12.11.2023 12:44 7,8 C 7,8 C 4,4 C 91 % 1007,4 hPa 0,0 l/m 0 min 0 min 77 W/m 3,2 km/h (1 Bft) 95,65 %
12.11.2023 12:46 7,8 C 7,8 C 4,4 C 90 % 1007,5 hPa 0,0 l/m 0 min 0 min 82 W/m 6,4 km/h (2 Bft) 100,00 %
12.11.2023 12:48 7,8 C 8,3 C 4,4 C 90 % 1007,5 hPa 0,0 l/m 0 min 0 min 84 W/m 6,4 km/h (2 Bft) 100,00 %
12.11.2023 12:50 7,9 C 8,3 C 4,4 C 90 % 1007,5 hPa 0,0 l/m 0 min 0 min 87 W/m 6,4 km/h (2 Bft) 100,00 %
12.11.2023 12:52 7,9 C 8,3 C 4,4 C 90 % 1007,6 hPa 0,0 l/m 0 min 0 min 85 W/m 3,2 km/h (1 Bft) 100,00 %
12.11.2023 12:54 8,0 C 8,3 C 4,4 C 90 % 1007,6 hPa 0,0 l/m 0 min 0 min 85 W/m 6,4 km/h (2 Bft) 97,92 %
12.11.2023 12:56 8,1 C 8,3 C 4,4 C 90 % 1007,6 hPa 0,0 l/m 0 min 0 min 80 W/m 9,7 km/h (2 Bft) 95,74 %
12.11.2023 12:58 8,1 C 8,3 C 4,4 C 90 % 1007,7 hPa 0,0 l/m 0 min 0 min 85 W/m 6,4 km/h (2 Bft) 97,14 %
12.11.2023 13:00 8,1 C 8,3 C 4,4 C 90 % 1007,7 hPa 0,0 l/m 0 min 0 min 109 W/m 6,4 km/h (2 Bft) 97,83 %
12.11.2023 13:02 8,1 C 8,3 C 4,4 C 89 % 1007,8 hPa 0,0 l/m 0 min 0 min 142 W/m 3,2 km/h (1 Bft) 97,87 %
12.11.2023 13:04 8,1 C 8,3 C 4,4 C 89 % 1007,8 hPa 0,0 l/m 0 min 0 min 153 W/m 3,2 km/h (1 Bft) 98,00 %
12.11.2023 13:08 8,2 C 8,3 C 5,0 C 89 % 1007,8 hPa 0,0 l/m 0 min 0 min 150 W/m 6,4 km/h (2 Bft) 98,10 %
12.11.2023 13:12 8,2 C 8,3 C 5,0 C 89 % 1007,8 hPa 0,0 l/m 0 min 0 min 138 W/m 6,4 km/h (2 Bft) 97,22 %
12.11.2023 13:14 8,2 C 8,3 C 5,0 C 89 % 1007,8 hPa 0,0 l/m 0 min 0 min 134 W/m 6,4 km/h (2 Bft) 97,87 %
12.11.2023 13:16 8,2 C 8,3 C 5,0 C 89 % 1007,8 hPa 0,0 l/m 0 min 0 min 126 W/m 0,0 km/h (0 Bft) 97,87 %
12.11.2023 13:18 8,2 C 8,3 C 5,0 C 89 % 1007,8 hPa 0,0 l/m 0 min 0 min 115 W/m 3,2 km/h (1 Bft) 97,83 %
12.11.2023 13:20 8,3 C 8,3 C 5,0 C 89 % 1007,8 hPa 0,0 l/m 0 min 0 min 107 W/m 3,2 km/h (1 Bft) 97,87 %
12.11.2023 13:22 8,3 C 8,3 C 5,0 C 89 % 1007,8 hPa 0,0 l/m 0 min 0 min 97 W/m 6,4 km/h (2 Bft) 97,87 %
12.11.2023 13:24 8,3 C 8,3 C 5,0 C 89 % 1007,8 hPa 0,0 l/m 0 min 0 min 83 W/m 9,7 km/h (2 Bft) 97,87 %
12.11.2023 13:26 8,3 C 8,3 C 5,0 C 89 % 1007,9 hPa 0,0 l/m 0 min 0 min 76 W/m 3,2 km/h (1 Bft) 95,74 %
12.11.2023 13:28 8,3 C 7,8 C 5,0 C 89 % 1007,8 hPa 0,0 l/m 0 min 0 min 79 W/m 9,7 km/h (2 Bft) 97,87 %
12.11.2023 13:30 8,3 C 7,8 C 4,4 C 89 % 1007,8 hPa 0,0 l/m 0 min 0 min 97 W/m 3,2 km/h (1 Bft) 100,00 %
12.11.2023 13:32 8,3 C 8,3 C 5,0 C 89 % 1007,8 hPa 0,0 l/m 0 min 0 min 133 W/m 3,2 km/h (1 Bft) 100,00 %
12.11.2023 13:34 8,3 C 8,3 C 5,0 C 89 % 1007,9 hPa 0,0 l/m 0 min 0 min 159 W/m 3,2 km/h (1 Bft) 100,00 %
12.11.2023 13:36 8,3 C 8,3 C 5,0 C 89 % 1007,8 hPa 0,0 l/m 2 min 0 min 171 W/m 3,2 km/h (1 Bft) 100,00 %
12.11.2023 13:38 8,3 C 8,3 C 5,0 C 89 % 1007,8 hPa 0,0 l/m 2 min 0 min 223 W/m 12,9 km/h (3 Bft) 95,74 %
12.11.2023 13:40 8,3 C 8,3 C 5,0 C 89 % 1007,8 hPa 0,0 l/m 2 min 0 min 178 W/m 3,2 km/h (1 Bft) 100,00 %
12.11.2023 13:42 8,3 C 8,3 C 5,0 C 89 % 1007,8 hPa 0,0 l/m 2 min 0 min 167 W/m 6,4 km/h (2 Bft) 100,00 %
12.11.2023 13:44 8,3 C 8,3 C 5,0 C 89 % 1007,8 hPa 0,0 l/m 0 min 0 min 146 W/m 12,9 km/h (3 Bft) 100,00 %
12.11.2023 13:46 8,3 C 8,3 C 5,0 C 89 % 1007,8 hPa 0,0 l/m 0 min 0 min 141 W/m 12,9 km/h (3 Bft) 100,00 %
12.11.2023 13:48 8,3 C 8,3 C 5,0 C 89 % 1007,8 hPa 0,0 l/m 0 min 0 min 127 W/m 6,4 km/h (2 Bft) 95,65 %
12.11.2023 13:50 8,4 C 8,3 C 5,0 C 89 % 1007,8 hPa 0,0 l/m 0 min 0 min 97 W/m 0,0 km/h (0 Bft) 100,00 %
12.11.2023 13:52 8,4 C 8,3 C 5,0 C 89 % 1007,8 hPa 0,0 l/m 0 min 0 min 79 W/m 3,2 km/h (1 Bft) 97,87 %
12.11.2023 13:54 8,4 C 8,3 C 5,0 C 89 % 1007,8 hPa 0,0 l/m 0 min 0 min 77 W/m 6,4 km/h (2 Bft) 100,00 %
12.11.2023 13:56 8,4 C 8,3 C 5,0 C 89 % 1007,7 hPa 0,0 l/m 0 min 0 min 79 W/m 3,2 km/h (1 Bft) 97,87 %
12.11.2023 13:58 8,4 C 8,3 C 5,0 C 89 % 1007,7 hPa 0,0 l/m 0 min 0 min 85 W/m 3,2 km/h (1 Bft) 95,74 %
12.11.2023 14:00 8,4 C 8,3 C 5,0 C 89 % 1007,7 hPa 0,0 l/m 0 min 0 min 91 W/m 3,2 km/h (1 Bft) 97,87 %
12.11.2023 14:02 8,4 C 8,3 C 5,0 C 89 % 1007,7 hPa 0,0 l/m 0 min 0 min 78 W/m 6,4 km/h (2 Bft) 97,83 %
12.11.2023 14:04 8,4 C 7,8 C 5,0 C 89 % 1007,7 hPa 0,0 l/m 0 min 0 min 67 W/m 6,4 km/h (2 Bft) 95,56 %
12.11.2023 14:08 8,4 C 7,8 C 4,4 C 89 % 1007,7 hPa 0,0 l/m 0 min 0 min 61 W/m 3,2 km/h (1 Bft) 98,04 %
12.11.2023 14:09 8,4 C 7,8 C 4,4 C 89 % 1007,6 hPa 0,0 l/m 0 min 0 min 67 W/m 3,2 km/h (1 Bft) 95,65 %
12.11.2023 14:10 8,3 C 7,8 C 4,4 C 89 % 1007,6 hPa 0,0 l/m 0 min 0 min 66 W/m 3,2 km/h (1 Bft) 100,00 %
12.11.2023 14:14 8,3 C 7,8 C 4,4 C 89 % 1007,6 hPa 0,0 l/m 0 min 0 min 84 W/m 3,2 km/h (1 Bft) 97,87 %
12.11.2023 14:16 8,3 C 7,8 C 4,4 C 89 % 1007,7 hPa 0,0 l/m 0 min 0 min 84 W/m 3,2 km/h (1 Bft) 95,74 %
12.11.2023 14:18 8,3 C 7,8 C 4,4 C 89 % 1007,6 hPa 0,0 l/m 0 min 0 min 89 W/m 3,2 km/h (1 Bft) 93,62 %
12.11.2023 14:20 8,3 C 7,8 C 4,4 C 89 % 1007,6 hPa 0,0 l/m 0 min 0 min 99 W/m 3,2 km/h (1 Bft) 93,62 %
12.11.2023 14:22 8,3 C 8,3 C 4,4 C 89 % 1007,6 hPa 0,0 l/m 0 min 0 min 120 W/m 3,2 km/h (1 Bft) 91,49 %
12.11.2023 14:24 8,3 C 8,3 C 4,4 C 89 % 1007,7 hPa 0,0 l/m 0 min 0 min 124 W/m 6,4 km/h (2 Bft) 95,74 %
12.11.2023 14:26 8,3 C 8,3 C 4,4 C 90 % 1007,6 hPa 0,0 l/m 2 min 0 min 152 W/m 3,2 km/h (1 Bft) 93,62 %
12.11.2023 14:28 8,3 C 8,3 C 4,4 C 90 % 1007,6 hPa 0,0 l/m 2 min 0 min 179 W/m 3,2 km/h (1 Bft) 95,74 %
12.11.2023 14:30 8,4 C 8,3 C 4,4 C 90 % 1007,6 hPa 0,0 l/m 2 min 0 min 172 W/m 3,2 km/h (1 Bft) 95,74 %
12.11.2023 14:32 8,4 C 8,9 C 4,4 C 90 % 1007,6 hPa 0,0 l/m 2 min 0 min 164 W/m 3,2 km/h (1 Bft) 93,48 %
12.11.2023 14:34 8,4 C 9,4 C 4,4 C 90 % 1007,6 hPa 0,0 l/m 2 min 0 min 152 W/m 3,2 km/h (1 Bft) 95,74 %
12.11.2023 14:36 8,4 C 9,4 C 4,4 C 90 % 1007,6 hPa 0,0 l/m 0 min 0 min 111 W/m 3,2 km/h (1 Bft) 95,74 %
12.11.2023 14:38 8,4 C 8,9 C 4,4 C 90 % 1007,5 hPa 0,0 l/m 0 min 0 min 94 W/m 3,2 km/h (1 Bft) 95,74 %
12.11.2023 14:40 8,4 C 8,9 C 4,4 C 90 % 1007,5 hPa 0,0 l/m 0 min 0 min 91 W/m 3,2 km/h (1 Bft) 91,49 %
12.11.2023 14:42 8,4 C 8,3 C 4,4 C 90 % 1007,5 hPa 0,0 l/m 0 min 0 min 98 W/m 3,2 km/h (1 Bft) 97,87 %
12.11.2023 14:44 8,4 C 8,3 C 4,4 C 90 % 1007,5 hPa 0,0 l/m 0 min 0 min 102 W/m 0,0 km/h (0 Bft) 97,87 %
12.11.2023 14:46 8,4 C 8,3 C 4,4 C 90 % 1007,5 hPa 0,0 l/m 0 min 0 min 96 W/m 0,0 km/h (0 Bft) 95,65 %
12.11.2023 14:48 8,4 C 8,3 C 4,4 C 90 % 1007,4 hPa 0,0 l/m 0 min 0 min 80 W/m 0,0 km/h (0 Bft) 97,87 %
12.11.2023 14:50 8,4 C 8,3 C 4,4 C 90 % 1007,5 hPa 0,0 l/m 0 min 0 min 72 W/m 6,4 km/h (2 Bft) 95,74 %
12.11.2023 14:52 8,4 C 7,8 C 4,4 C 90 % 1007,5 hPa 0,0 l/m 0 min 0 min 72 W/m 3,2 km/h (1 Bft) 95,74 %
12.11.2023 14:54 8,4 C 7,8 C 4,4 C 90 % 1007,5 hPa 0,0 l/m 0 min 0 min 70 W/m 3,2 km/h (1 Bft) 97,87 %
12.11.2023 14:56 8,4 C 7,8 C 4,4 C 90 % 1007,5 hPa 0,0 l/m 0 min 0 min 65 W/m 3,2 km/h (1 Bft) 95,74 %
12.11.2023 14:58 8,4 C 7,8 C 4,4 C 90 % 1007,5 hPa 0,0 l/m 0 min 0 min 57 W/m 3,2 km/h (1 Bft) 93,62 %
12.11.2023 15:00 8,3 C 7,8 C 4,4 C 90 % 1007,5 hPa 0,0 l/m 0 min 0 min 53 W/m 0,0 km/h (0 Bft) 100,00 %
12.11.2023 15:02 8,3 C 7,8 C 4,4 C 90 % 1007,6 hPa 0,0 l/m 0 min 0 min 51 W/m 3,2 km/h (1 Bft) 97,87 %
12.11.2023 15:04 8,3 C 7,8 C 4,4 C 90 % 1007,5 hPa 0,0 l/m 0 min 0 min 51 W/m 3,2 km/h (1 Bft) 95,74 %
12.11.2023 15:08 8,3 C 7,8 C 4,4 C 90 % 1007,6 hPa 0,0 l/m 0 min 0 min 50 W/m 0,0 km/h (0 Bft) 97,85 %
12.11.2023 15:09 8,3 C 7,8 C 4,4 C 90 % 1007,6 hPa 0,0 l/m 0 min 0 min 51 W/m 3,2 km/h (1 Bft) 95,83 %
12.11.2023 15:10 8,3 C 7,8 C 4,4 C 90 % 1007,6 hPa 0,0 l/m 0 min 0 min 50 W/m 3,2 km/h (1 Bft) 100,00 %
12.11.2023 15:14 8,3 C 7,8 C 4,4 C 89 % 1007,6 hPa 0,0 l/m 0 min 0 min 54 W/m 0,0 km/h (0 Bft) 95,74 %
12.11.2023 15:16 8,3 C 7,2 C 4,4 C 89 % 1007,6 hPa 0,0 l/m 0 min 0 min 54 W/m 0,0 km/h (0 Bft) 97,92 %
12.11.2023 15:18 8,3 C 7,2 C 3,9 C 89 % 1007,6 hPa 0,0 l/m 0 min 0 min 56 W/m 0,0 km/h (0 Bft) 95,65 %
12.11.2023 15:20 8,2 C 7,2 C 3,9 C 89 % 1007,7 hPa 0,0 l/m 0 min 0 min 57 W/m 3,2 km/h (1 Bft) 97,87 %
12.11.2023 15:22 8,2 C 7,2 C 3,9 C 89 % 1007,6 hPa 0,0 l/m 0 min 0 min 58 W/m 0,0 km/h (0 Bft) 97,87 %
12.11.2023 15:24 8,2 C 7,2 C 3,9 C 89 % 1007,6 hPa 0,0 l/m 0 min 0 min 58 W/m 0,0 km/h (0 Bft) 97,87 %
12.11.2023 15:26 8,2 C 7,2 C 3,9 C 90 % 1007,6 hPa 0,0 l/m 0 min 0 min 60 W/m 0,0 km/h (0 Bft) 95,74 %
12.11.2023 15:28 8,2 C 7,2 C 3,9 C 90 % 1007,7 hPa 0,0 l/m 0 min 0 min 60 W/m 0,0 km/h (0 Bft) 97,87 %
12.11.2023 15:30 8,2 C 7,2 C 3,9 C 90 % 1007,6 hPa 0,0 l/m 0 min 0 min 60 W/m 0,0 km/h (0 Bft) 97,87 %
12.11.2023 15:32 8,2 C 7,2 C 3,9 C 90 % 1007,7 hPa 0,0 l/m 0 min 0 min 58 W/m 3,2 km/h (1 Bft) 97,87 %
12.11.2023 15:34 8,2 C 7,2 C 3,9 C 90 % 1007,7 hPa 0,0 l/m 0 min 0 min 55 W/m 0,0 km/h (0 Bft) 97,87 %
12.11.2023 15:36 8,2 C 7,2 C 3,9 C 90 % 1007,7 hPa 0,0 l/m 0 min 0 min 52 W/m 0,0 km/h (0 Bft) 97,87 %
12.11.2023 15:38 8,1 C 7,2 C 3,9 C 90 % 1007,7 hPa 0,0 l/m 0 min 0 min 50 W/m 3,2 km/h (1 Bft) 100,00 %
12.11.2023 15:40 8,1 C 7,2 C 3,9 C 90 % 1007,7 hPa 0,0 l/m 0 min 0 min 47 W/m 0,0 km/h (0 Bft) 100,00 %
12.11.2023 15:42 8,1 C 7,2 C 3,9 C 90 % 1007,7 hPa 0,0 l/m 0 min 0 min 45 W/m 3,2 km/h (1 Bft) 100,00 %
12.11.2023 15:44 8,1 C 7,2 C 3,9 C 90 % 1007,7 hPa 0,0 l/m 0 min 0 min 44 W/m 0,0 km/h (0 Bft) 100,00 %
12.11.2023 15:46 8,1 C 7,2 C 3,9 C 90 % 1007,7 hPa 0,0 l/m 0 min 0 min 44 W/m 0,0 km/h (0 Bft) 97,83 %
12.11.2023 15:48 8,1 C 7,2 C 3,9 C 90 % 1007,7 hPa 0,0 l/m 0 min 0 min 44 W/m 0,0 km/h (0 Bft) 100,00 %
12.11.2023 15:50 8,1 C 7,2 C 3,9 C 90 % 1007,8 hPa 0,0 l/m 0 min 0 min 44 W/m 0,0 km/h (0 Bft) 100,00 %
12.11.2023 15:52 8,1 C 7,2 C 3,9 C 90 % 1007,8 hPa 0,0 l/m 0 min 0 min 45 W/m 0,0 km/h (0 Bft) 100,00 %
12.11.2023 15:54 8,1 C 7,2 C 3,9 C 90 % 1007,8 hPa 0,0 l/m 0 min 0 min 42 W/m 0,0 km/h (0 Bft) 100,00 %
12.11.2023 15:56 8,1 C 7,2 C 3,9 C 90 % 1007,9 hPa 0,0 l/m 0 min 0 min 40 W/m 0,0 km/h (0 Bft) 100,00 %
12.11.2023 15:58 8,0 C 7,2 C 3,9 C 90 % 1007,9 hPa 0,0 l/m 0 min 0 min 37 W/m 0,0 km/h (0 Bft) 100,00 %
12.11.2023 16:00 8,0 C 7,2 C 3,9 C 90 % 1007,9 hPa 0,0 l/m 0 min 0 min 33 W/m 0,0 km/h (0 Bft) 100,00 %
12.11.2023 16:02 8,0 C 7,2 C 3,9 C 90 % 1007,9 hPa 0,0 l/m 0 min 0 min 31 W/m 0,0 km/h (0 Bft) 97,87 %
12.11.2023 16:04 8,0 C 7,2 C 3,9 C 90 % 1008,0 hPa 0,0 l/m 0 min 0 min 29 W/m 0,0 km/h (0 Bft) 95,74 %
12.11.2023 16:08 7,9 C 6,7 C 3,9 C 90 % 1008,0 hPa 0,0 l/m 0 min 0 min 29 W/m 0,0 km/h (0 Bft) 100,00 %
12.11.2023 16:09 7,9 C 6,7 C 3,3 C 90 % 1008,0 hPa 0,0 l/m 0 min 0 min 30 W/m 0,0 km/h (0 Bft) 100,00 %
12.11.2023 16:10 7,9 C 6,7 C 3,3 C 90 % 1008,0 hPa 0,0 l/m 0 min 0 min 30 W/m 0,0 km/h (0 Bft) 100,00 %
12.11.2023 16:14 7,9 C 6,7 C 3,3 C 90 % 1008,0 hPa 0,0 l/m 0 min 0 min 30 W/m 0,0 km/h (0 Bft) 97,92 %
12.11.2023 16:16 7,9 C 6,7 C 3,3 C 90 % 1007,9 hPa 0,0 l/m 0 min 0 min 30 W/m 0,0 km/h (0 Bft) 95,65 %
12.11.2023 16:18 7,9 C 6,7 C 3,3 C 90 % 1008,0 hPa 0,0 l/m 0 min 0 min 29 W/m 0,0 km/h (0 Bft) 100,00 %
12.11.2023 16:20 7,9 C 6,7 C 3,3 C 90 % 1008,0 hPa 0,0 l/m 0 min 0 min 28 W/m 0,0 km/h (0 Bft) 97,87 %
12.11.2023 16:22 7,8 C 6,7 C 3,3 C 90 % 1008,0 hPa 0,0 l/m 0 min 0 min 26 W/m 0,0 km/h (0 Bft) 97,87 %
12.11.2023 16:24 7,8 C 6,7 C 3,3 C 90 % 1007,9 hPa 0,0 l/m 0 min 0 min 22 W/m 0,0 km/h (0 Bft) 97,87 %
12.11.2023 16:26 7,8 C 6,7 C 3,3 C 90 % 1008,0 hPa 0,0 l/m 0 min 0 min 18 W/m 0,0 km/h (0 Bft) 97,87 %
12.11.2023 16:28 7,8 C 6,7 C 3,3 C 90 % 1008,0 hPa 0,0 l/m 0 min 0 min 15 W/m 0,0 km/h (0 Bft) 95,74 %
12.11.2023 16:30 7,8 C 6,7 C 3,3 C 90 % 1008,0 hPa 0,0 l/m 0 min 0 min 12 W/m 0,0 km/h (0 Bft) 95,65 %
12.11.2023 16:32 7,8 C 6,1 C 3,3 C 90 % 1008,0 hPa 0,0 l/m 0 min 0 min 11 W/m 0,0 km/h (0 Bft) 97,87 %
12.11.2023 16:34 7,8 C 6,1 C 3,3 C 90 % 1008,0 hPa 0,0 l/m 0 min 0 min 8 W/m 0,0 km/h (0 Bft) 95,74 %
12.11.2023 16:36 7,7 C 6,1 C 3,3 C 90 % 1008,0 hPa 0,0 l/m 0 min 0 min 7 W/m 0,0 km/h (0 Bft) 95,74 %
12.11.2023 16:38 7,7 C 6,1 C 2,8 C 90 % 1008,0 hPa 0,0 l/m 0 min 0 min 7 W/m 0,0 km/h (0 Bft) 97,87 %
12.11.2023 16:40 7,7 C 6,1 C 2,8 C 90 % 1008,1 hPa 0,0 l/m 0 min 0 min 5 W/m 0,0 km/h (0 Bft) 95,74 %
12.11.2023 16:42 7,6 C 6,1 C 2,8 C 90 % 1008,1 hPa 0,0 l/m 0 min 0 min 5 W/m 0,0 km/h (0 Bft) 95,74 %
12.11.2023 16:44 7,6 C 6,1 C 2,8 C 90 % 1008,0 hPa 0,0 l/m 0 min 0 min 5 W/m 0,0 km/h (0 Bft) 97,96 %
12.11.2023 16:46 7,6 C 5,6 C 2,8 C 90 % 1008,1 hPa 0,0 l/m 0 min 0 min 3 W/m 0,0 km/h (0 Bft) 97,87 %
12.11.2023 16:48 7,6 C 5,6 C 2,8 C 90 % 1008,0 hPa 0,0 l/m 0 min 0 min 0 W/m 0,0 km/h (0 Bft) 97,87 %
12.11.2023 16:50 7,6 C 5,6 C 2,8 C 90 % 1008,0 hPa 0,0 l/m 0 min 0 min 0 W/m 0,0 km/h (0 Bft) 97,87 %
12.11.2023 16:52 7,6 C 5,6 C 2,8 C 90 % 1008,0 hPa 0,0 l/m 0 min 0 min 0 W/m 0,0 km/h (0 Bft) 97,87 %
12.11.2023 16:54 7,5 C 5,6 C 2,8 C 90 % 1008,1 hPa 0,0 l/m 0 min 0 min 0 W/m 0,0 km/h (0 Bft) 97,92 %
12.11.2023 16:56 7,4 C 5,6 C 2,8 C 90 % 1008,1 hPa 0,0 l/m 0 min 0 min 0 W/m 0,0 km/h (0 Bft) 97,83 %
12.11.2023 16:58 7,4 C 5,6 C 2,8 C 90 % 1008,1 hPa 0,0 l/m 0 min 0 min 0 W/m 0,0 km/h (0 Bft) 97,87 %
12.11.2023 17:00 7,4 C 5,6 C 2,8 C 90 % 1008,2 hPa 0,0 l/m 0 min 0 min 0 W/m 0,0 km/h (0 Bft) 97,87 %
12.11.2023 17:02 7,3 C 5,6 C 2,8 C 90 % 1008,1 hPa 0,0 l/m 0 min 0 min 0 W/m 0,0 km/h (0 Bft) 95,74 %
12.11.2023 17:04 7,3 C 5,6 C 2,8 C 90 % 1008,1 hPa 0,0 l/m 0 min 0 min 0 W/m 0,0 km/h (0 Bft) 98,00 %
12.11.2023 17:06 7,3 C 5,6 C 2,8 C 90 % 1008,1 hPa 0,0 l/m 0 min 0 min 0 W/m 0,0 km/h (0 Bft) 95,74 %
12.11.2023 17:08 7,3 C 5,6 C 2,8 C 90 % 1008,1 hPa 0,0 l/m 0 min 0 min 0 W/m 0,0 km/h (0 Bft) 95,65 %
12.11.2023 17:10 7,2 C 5,6 C 2,2 C 90 % 1008,2 hPa 0,0 l/m 0 min 0 min 0 W/m 0,0 km/h (0 Bft) 95,74 %
12.11.2023 17:12 7,2 C 5,6 C 2,2 C 90 % 1008,3 hPa 0,0 l/m 0 min 0 min 0 W/m 0,0 km/h (0 Bft) 95,74 %
12.11.2023 17:14 7,2 C 5,6 C 2,2 C 90 % 1008,4 hPa 0,0 l/m 0 min 0 min 0 W/m 0,0 km/h (0 Bft) 93,62 %
12.11.2023 17:16 7,2 C 5,6 C 2,2 C 90 % 1008,4 hPa 0,0 l/m 0 min 0 min 0 W/m 0,0 km/h (0 Bft) 95,74 %
12.11.2023 17:18 7,1 C 5,6 C 2,2 C 90 % 1008,4 hPa 0,0 l/m 0 min 0 min 0 W/m 0,0 km/h (0 Bft) 93,62 %
12.11.2023 17:20 7,1 C 5,0 C 2,2 C 90 % 1008,4 hPa 0,0 l/m 0 min 0 min 0 W/m 0,0 km/h (0 Bft) 95,74 %
12.11.2023 17:22 7,1 C 5,0 C 2,2 C 90 % 1008,4 hPa 0,0 l/m 0 min 0 min 0 W/m 0,0 km/h (0 Bft) 95,65 %
12.11.2023 17:24 7,0 C 5,0 C 2,2 C 90 % 1008,5 hPa 0,0 l/m 0 min 0 min 0 W/m 0,0 km/h (0 Bft) 95,74 %
12.11.2023 17:26 7,0 C 5,0 C 2,2 C 90 % 1008,5 hPa 0,0 l/m 0 min 0 min 0 W/m 0,0 km/h (0 Bft) 91,49 %
12.11.2023 17:28 6,9 C 5,0 C 2,2 C 90 % 1008,5 hPa 0,0 l/m 0 min 0 min 0 W/m 0,0 km/h (0 Bft) 95,74 %
12.11.2023 17:30 6,9 C 5,0 C 2,2 C 90 % 1008,5 hPa 0,0 l/m 0 min 0 min 0 W/m 0,0 km/h (0 Bft) 91,49 %
12.11.2023 17:32 6,9 C 5,0 C 2,8 C 90 % 1008,5 hPa 0,0 l/m 0 min 0 min 0 W/m 0,0 km/h (0 Bft) 97,87 %
12.11.2023 17:34 6,8 C 5,6 C 2,8 C 90 % 1008,5 hPa 0,0 l/m 0 min 0 min 0 W/m 0,0 km/h (0 Bft) 97,87 %
12.11.2023 17:36 6,8 C 5,6 C 2,8 C 90 % 1008,5 hPa 0,0 l/m 0 min 0 min 0 W/m 0,0 km/h (0 Bft) 95,65 %
12.11.2023 17:38 6,8 C 5,6 C 2,8 C 90 % 1008,5 hPa 0,0 l/m 0 min 0 min 0 W/m 0,0 km/h (0 Bft) 97,87 %
12.11.2023 17:40 6,8 C 5,6 C 2,8 C 90 % 1008,4 hPa 0,0 l/m 0 min 0 min 0 W/m 0,0 km/h (0 Bft) 97,87 %
12.11.2023 17:42 6,7 C 5,6 C 2,8 C 90 % 1008,4 hPa 0,2 l/m 0 min 0 min 0 W/m 0,0 km/h (0 Bft) 97,87 %
12.11.2023 17:44 6,7 C 5,6 C 2,8 C 90 % 1008,4 hPa 0,0 l/m 0 min 0 min 0 W/m 0,0 km/h (0 Bft) 97,87 %
12.11.2023 17:46 6,7 C 5,6 C 2,8 C 90 % 1008,4 hPa 0,0 l/m 0 min 0 min 0 W/m 0,0 km/h (0 Bft) 97,87 %
12.11.2023 17:48 6,7 C 5,6 C 2,8 C 90 % 1008,4 hPa 0,0 l/m 0 min 0 min 0 W/m 0,0 km/h (0 Bft) 95,74 %
12.11.2023 17:50 6,7 C 5,6 C 2,8 C 91 % 1008,4 hPa 0,0 l/m 0 min 0 min 0 W/m 0,0 km/h (0 Bft) 95,74 %
12.11.2023 17:52 6,6 C 5,6 C 2,8 C 91 % 1008,4 hPa 0,0 l/m 0 min 0 min 0 W/m 0,0 km/h (0 Bft) 97,22 %
12.11.2023 17:54 6,6 C 5,6 C 2,8 C 91 % 1008,4 hPa 0,0 l/m 0 min 0 min 0 W/m 0,0 km/h (0 Bft) 97,83 %
12.11.2023 17:56 6,6 C 5,6 C 2,8 C 91 % 1008,4 hPa 0,0 l/m 0 min 0 min 0 W/m 0,0 km/h (0 Bft) 100,00 %
12.11.2023 17:58 6,6 C 5,6 C 2,8 C 90 % 1008,4 hPa 0,0 l/m 0 min 0 min 0 W/m 0,0 km/h (0 Bft) 100,00 %
12.11.2023 18:00 6,6 C 5,6 C 2,8 C 91 % 1008,5 hPa 0,0 l/m 0 min 0 min 0 W/m 0,0 km/h (0 Bft) 100,00 %
12.11.2023 18:02 6,6 C 5,6 C 2,8 C 91 % 1008,5 hPa 0,0 l/m 0 min 0 min 0 W/m 0,0 km/h (0 Bft) 100,00 %
12.11.2023 18:04 6,6 C 5,0 C 2,8 C 91 % 1008,5 hPa 0,0 l/m 0 min 0 min 0 W/m 0,0 km/h (0 Bft) 97,83 %
12.11.2023 18:08 6,5 C 5,0 C 2,8 C 91 % 1008,5 hPa 0,0 l/m 0 min 0 min 0 W/m 0,0 km/h (0 Bft) 99,01 %
12.11.2023 18:10 6,5 C 5,0 C 2,8 C 91 % 1008,4 hPa 0,0 l/m 0 min 0 min 0 W/m 0,0 km/h (0 Bft) 100,00 %
12.11.2023 18:12 6,5 C 5,0 C 2,8 C 91 % 1008,4 hPa 0,0 l/m 0 min 0 min 0 W/m 0,0 km/h (0 Bft) 97,87 %
12.11.2023 18:16 6,5 C 5,0 C 2,2 C 91 % 1008,4 hPa 0,0 l/m 0 min 0 min 0 W/m 0,0 km/h (0 Bft) 98,92 %
12.11.2023 18:18 6,5 C 5,0 C 2,2 C 91 % 1008,5 hPa 0,0 l/m 0 min 0 min 0 W/m 0,0 km/h (0 Bft) 97,87 %
12.11.2023 18:20 6,4 C 5,0 C 2,2 C 91 % 1008,5 hPa 0,0 l/m 0 min 0 min 0 W/m 0,0 km/h (0 Bft) 95,74 %
12.11.2023 18:22 6,4 C 5,0 C 2,2 C 91 % 1008,5 hPa 0,0 l/m 0 min 0 min 0 W/m 0,0 km/h (0 Bft) 97,87 %
12.11.2023 18:24 6,4 C 5,0 C 2,2 C 91 % 1008,5 hPa 0,0 l/m 0 min 0 min 0 W/m 0,0 km/h (0 Bft) 100,00 %
12.11.2023 18:26 6,4 C 5,0 C 2,2 C 91 % 1008,5 hPa 0,0 l/m 0 min 0 min 0 W/m 0,0 km/h (0 Bft) 97,87 %
12.11.2023 18:28 6,4 C 5,0 C 2,2 C 91 % 1008,4 hPa 0,0 l/m 0 min 0 min 0 W/m 0,0 km/h (0 Bft) 97,87 %
12.11.2023 18:30 6,3 C 5,0 C 2,2 C 91 % 1008,4 hPa 0,0 l/m 0 min 0 min 0 W/m 0,0 km/h (0 Bft) 95,74 %
12.11.2023 18:32 6,3 C 5,0 C 2,2 C 91 % 1008,4 hPa 0,0 l/m 0 min 0 min 0 W/m 0,0 km/h (0 Bft) 100,00 %
12.11.2023 18:38 6,3 C 5,0 C 2,2 C 92 % 1008,4 hPa 0,0 l/m 0 min 0 min 0 W/m 0,0 km/h (0 Bft) 98,53 %
12.11.2023 18:39 6,2 C 5,0 C 2,2 C 92 % 1008,4 hPa 0,0 l/m 0 min 0 min 0 W/m 0,0 km/h (0 Bft) 95,65 %
12.11.2023 18:40 6,2 C 5,0 C 2,2 C 92 % 1008,4 hPa 0,0 l/m 0 min 0 min 0 W/m 0,0 km/h (0 Bft) 95,83 %
12.11.2023 18:42 6,2 C 5,0 C 2,2 C 92 % 1008,4 hPa 0,0 l/m 0 min 0 min 0 W/m 0,0 km/h (0 Bft) 100,00 %
12.11.2023 18:48 6,2 C 5,0 C 2,2 C 92 % 1008,4 hPa 0,0 l/m 0 min 0 min 0 W/m 0,0 km/h (0 Bft) 95,45 %
12.11.2023 18:49 6,2 C 5,0 C 2,2 C 92 % 1008,5 hPa 0,0 l/m 0 min 0 min 0 W/m 0,0 km/h (0 Bft) 100,00 %
12.11.2023 18:50 6,2 C 5,0 C 2,2 C 92 % 1008,5 hPa 0,0 l/m 0 min 0 min 0 W/m 0,0 km/h (0 Bft) 98,25 %
12.11.2023 18:54 6,1 C 5,0 C 2,2 C 92 % 1008,6 hPa 0,0 l/m 0 min 0 min 0 W/m 0,0 km/h (0 Bft) 93,75 %
12.11.2023 18:56 6,1 C 5,0 C 2,8 C 92 % 1008,7 hPa 0,0 l/m 0 min 0 min 0 W/m 0,0 km/h (0 Bft) 95,74 %
12.11.2023 18:58 6,1 C 5,0 C 2,8 C 92 % 1008,7 hPa 0,0 l/m 0 min 0 min 0 W/m 0,0 km/h (0 Bft) 95,83 %
12.11.2023 19:00 6,1 C 5,0 C 2,8 C 92 % 1008,7 hPa 0,0 l/m 0 min 0 min 0 W/m 0,0 km/h (0 Bft) 96,15 %
12.11.2023 19:02 6,1 C 5,6 C 2,8 C 92 % 1008,7 hPa 0,0 l/m 0 min 0 min 0 W/m 0,0 km/h (0 Bft) 93,18 %
12.11.2023 19:04 6,1 C 5,6 C 2,8 C 93 % 1008,6 hPa 0,0 l/m 0 min 0 min 0 W/m 0,0 km/h (0 Bft) 97,87 %
12.11.2023 19:08 6,1 C 5,6 C 2,8 C 93 % 1008,6 hPa 0,0 l/m 0 min 0 min 0 W/m 3,2 km/h (1 Bft) 97,87 %
12.11.2023 19:09 6,2 C 5,6 C 2,8 C 93 % 1008,6 hPa 0,0 l/m 0 min 0 min 0 W/m 3,2 km/h (1 Bft) 100,00 %
12.11.2023 19:10 6,2 C 5,6 C 2,8 C 93 % 1008,6 hPa 0,0 l/m 0 min 0 min 0 W/m 3,2 km/h (1 Bft) 100,00 %
12.11.2023 19:14 6,2 C 5,6 C 2,8 C 93 % 1008,7 hPa 0,0 l/m 0 min 0 min 0 W/m 0,0 km/h (0 Bft) 98,28 %
12.11.2023 19:16 6,2 C 5,6 C 2,8 C 93 % 1008,8 hPa 0,0 l/m 0 min 0 min 0 W/m 0,0 km/h (0 Bft) 97,14 %
12.11.2023 19:18 6,2 C 5,6 C 2,8 C 93 % 1008,9 hPa 0,0 l/m 0 min 0 min 0 W/m 0,0 km/h (0 Bft) 100,00 %
12.11.2023 19:20 6,3 C 6,1 C 2,8 C 94 % 1008,9 hPa 0,0 l/m 0 min 0 min 0 W/m 3,2 km/h (1 Bft) 100,00 %
12.11.2023 19:22 6,3 C 6,1 C 2,8 C 94 % 1009,0 hPa 0,0 l/m 0 min 0 min 0 W/m 0,0 km/h (0 Bft) 100,00 %
12.11.2023 19:24 6,3 C 6,1 C 2,8 C 94 % 1009,0 hPa 0,0 l/m 0 min 0 min 0 W/m 3,2 km/h (1 Bft) 97,87 %
12.11.2023 19:26 6,3 C 6,1 C 3,3 C 94 % 1009,0 hPa 0,0 l/m 0 min 0 min 0 W/m 0,0 km/h (0 Bft) 100,00 %
12.11.2023 19:28 6,4 C 6,1 C 3,3 C 94 % 1009,0 hPa 0,0 l/m 0 min 0 min 0 W/m 3,2 km/h (1 Bft) 100,00 %
12.11.2023 19:30 6,4 C 6,1 C 3,3 C 94 % 1008,9 hPa 0,0 l/m 0 min 0 min 0 W/m 3,2 km/h (1 Bft) 100,00 %
12.11.2023 19:32 6,4 C 6,1 C 3,3 C 94 % 1008,9 hPa 0,0 l/m 0 min 0 min 0 W/m 3,2 km/h (1 Bft) 100,00 %
12.11.2023 19:34 6,4 C 6,1 C 3,3 C 94 % 1008,9 hPa 0,0 l/m 0 min 0 min 0 W/m 3,2 km/h (1 Bft) 100,00 %
12.11.2023 19:36 6,5 C 6,1 C 3,3 C 94 % 1008,8 hPa 0,0 l/m 0 min 0 min 0 W/m 3,2 km/h (1 Bft) 100,00 %
12.11.2023 19:38 6,5 C 6,1 C 3,3 C 94 % 1008,8 hPa 0,0 l/m 0 min 0 min 0 W/m 3,2 km/h (1 Bft) 100,00 %
12.11.2023 19:40 6,5 C 6,1 C 3,3 C 94 % 1008,8 hPa 0,0 l/m 0 min 0 min 0 W/m 3,2 km/h (1 Bft) 100,00 %
12.11.2023 19:42 6,5 C 6,1 C 3,3 C 94 % 1008,9 hPa 0,0 l/m 0 min 0 min 0 W/m 0,0 km/h (0 Bft) 100,00 %
12.11.2023 19:44 6,5 C 6,1 C 3,3 C 94 % 1009,0 hPa 0,0 l/m 0 min 0 min 0 W/m 3,2 km/h (1 Bft) 100,00 %
12.11.2023 19:46 6,5 C 6,1 C 3,3 C 94 % 1009,0 hPa 0,0 l/m 0 min 0 min 0 W/m 0,0 km/h (0 Bft) 100,00 %
12.11.2023 19:48 6,5 C 6,1 C 3,3 C 94 % 1009,0 hPa 0,0 l/m 0 min 0 min 0 W/m 0,0 km/h (0 Bft) 100,00 %
12.11.2023 19:50 6,5 C 6,1 C 3,3 C 94 % 1009,0 hPa 0,0 l/m 0 min 0 min 0 W/m 3,2 km/h (1 Bft) 100,00 %
12.11.2023 19:52 6,5 C 6,1 C 3,3 C 94 % 1008,9 hPa 0,0 l/m 0 min 0 min 0 W/m 3,2 km/h (1 Bft) 100,00 %
12.11.2023 19:54 6,5 C 6,1 C 3,3 C 95 % 1008,8 hPa 0,0 l/m 0 min 0 min 0 W/m 0,0 km/h (0 Bft) 100,00 %
12.11.2023 19:56 6,5 C 6,1 C 3,3 C 95 % 1008,8 hPa 0,0 l/m 0 min 0 min 0 W/m 3,2 km/h (1 Bft) 100,00 %
12.11.2023 19:58 6,5 C 6,1 C 3,3 C 95 % 1008,8 hPa 0,0 l/m 0 min 0 min 0 W/m 0,0 km/h (0 Bft) 100,00 %
12.11.2023 20:00 6,5 C 5,6 C 3,3 C 95 % 1008,8 hPa 0,0 l/m 0 min 0 min 0 W/m 0,0 km/h (0 Bft) 100,00 %
12.11.2023 20:02 6,5 C 5,6 C 3,3 C 95 % 1008,9 hPa 0,0 l/m 0 min 0 min 0 W/m 0,0 km/h (0 Bft) 97,87 %
12.11.2023 20:04 6,5 C 5,6 C 3,3 C 95 % 1008,9 hPa 0,0 l/m 0 min 0 min 0 W/m 3,2 km/h (1 Bft) 100,00 %
12.11.2023 20:06 6,5 C 5,6 C 2,8 C 95 % 1008,9 hPa 0,0 l/m 0 min 0 min 0 W/m 3,2 km/h (1 Bft) 100,00 %
12.11.2023 20:08 6,5 C 5,6 C 2,8 C 95 % 1009,0 hPa 0,0 l/m 0 min 0 min 0 W/m 0,0 km/h (0 Bft) 97,87 %
12.11.2023 20:10 6,4 C 5,6 C 2,8 C 94 % 1009,0 hPa 0,0 l/m 0 min 0 min 0 W/m 3,2 km/h (1 Bft) 100,00 %
12.11.2023 20:12 6,4 C 5,6 C 2,8 C 94 % 1009,1 hPa 0,0 l/m 0 min 0 min 0 W/m 3,2 km/h (1 Bft) 100,00 %
12.11.2023 20:14 6,4 C 5,6 C 2,8 C 94 % 1009,1 hPa 0,0 l/m 0 min 0 min 0 W/m 0,0 km/h (0 Bft) 100,00 %
12.11.2023 20:16 6,4 C 5,6 C 2,8 C 95 % 1009,2 hPa 0,0 l/m 0 min 0 min 0 W/m 0,0 km/h (0 Bft) 97,87 %
12.11.2023 20:18 6,4 C 5,6 C 2,8 C 95 % 1009,2 hPa 0,0 l/m 0 min 0 min 0 W/m 3,2 km/h (1 Bft) 100,00 %
12.11.2023 20:20 6,4 C 5,6 C 2,8 C 95 % 1009,0 hPa 0,0 l/m 0 min 0 min 0 W/m 3,2 km/h (1 Bft) 97,83 %
12.11.2023 20:22 6,4 C 5,6 C 2,8 C 94 % 1009,0 hPa 0,0 l/m 0 min 0 min 0 W/m 3,2 km/h (1 Bft) 97,87 %
12.11.2023 20:24 6,3 C 5,6 C 2,8 C 94 % 1009,1 hPa 0,0 l/m 0 min 0 min 0 W/m 3,2 km/h (1 Bft) 97,87 %
12.11.2023 20:26 6,3 C 5,6 C 2,8 C 94 % 1009,0 hPa 0,0 l/m 0 min 0 min 0 W/m 3,2 km/h (1 Bft) 97,87 %
12.11.2023 20:28 6,3 C 5,6 C 2,8 C 94 % 1009,0 hPa 0,0 l/m 0 min 0 min 0 W/m 3,2 km/h (1 Bft) 95,74 %
12.11.2023 20:30 6,3 C 5,6 C 2,8 C 94 % 1008,9 hPa 0,0 l/m 0 min 0 min 0 W/m 3,2 km/h (1 Bft) 97,87 %
12.11.2023 20:32 6,3 C 5,6 C 2,8 C 94 % 1008,8 hPa 0,0 l/m 0 min 0 min 0 W/m 3,2 km/h (1 Bft) 95,74 %
12.11.2023 20:34 6,2 C 5,6 C 2,8 C 94 % 1008,8 hPa 0,0 l/m 0 min 0 min 0 W/m 3,2 km/h (1 Bft) 95,65 %
12.11.2023 20:36 6,2 C 5,6 C 2,8 C 94 % 1008,8 hPa 0,0 l/m 0 min 0 min 0 W/m 3,2 km/h (1 Bft) 95,74 %
12.11.2023 20:38 6,2 C 5,6 C 2,8 C 94 % 1008,6 hPa 0,0 l/m 0 min 0 min 0 W/m 6,4 km/h (2 Bft) 97,87 %
12.11.2023 20:40 6,1 C 5,6 C 2,8 C 94 % 1008,6 hPa 0,0 l/m 0 min 0 min 0 W/m 3,2 km/h (1 Bft) 93,62 %
12.11.2023 20:42 6,1 C 5,0 C 2,8 C 94 % 1008,7 hPa 0,0 l/m 0 min 0 min 0 W/m 3,2 km/h (1 Bft) 89,36 %
12.11.2023 20:44 6,1 C 5,0 C 2,8 C 94 % 1008,7 hPa 0,0 l/m 0 min 0 min 0 W/m 0,0 km/h (0 Bft) 89,36 %
12.11.2023 20:46 6,1 C 5,0 C 2,8 C 94 % 1008,7 hPa 0,0 l/m 0 min 0 min 0 W/m 3,2 km/h (1 Bft) 93,62 %
12.11.2023 20:48 6,1 C 5,0 C 2,8 C 94 % 1008,8 hPa 0,0 l/m 0 min 0 min 0 W/m 3,2 km/h (1 Bft) 91,30 %
12.11.2023 20:50 6,0 C 5,0 C 2,8 C 94 % 1008,8 hPa 0,0 l/m 0 min 0 min 0 W/m 3,2 km/h (1 Bft) 93,62 %
12.11.2023 20:52 5,9 C 5,0 C 2,8 C 94 % 1008,9 hPa 0,0 l/m 0 min 0 min 0 W/m 3,2 km/h (1 Bft) 95,74 %
12.11.2023 20:54 5,9 C 5,0 C 2,8 C 94 % 1009,0 hPa 0,0 l/m 0 min 0 min 0 W/m 0,0 km/h (0 Bft) 94,55 %
12.11.2023 20:56 5,9 C 5,0 C 2,2 C 94 % 1009,0 hPa 0,0 l/m 0 min 0 min 0 W/m 0,0 km/h (0 Bft) 91,67 %
12.11.2023 20:58 5,9 C 5,0 C 2,2 C 94 % 1009,1 hPa 0,0 l/m 0 min 0 min 0 W/m 0,0 km/h (0 Bft) 93,75 %
12.11.2023 21:00 5,9 C 5,0 C 2,2 C 94 % 1009,2 hPa 0,0 l/m 0 min 0 min 0 W/m 0,0 km/h (0 Bft) 91,49 %
12.11.2023 21:02 5,8 C 5,0 C 2,2 C 94 % 1009,2 hPa 0,0 l/m 0 min 0 min 0 W/m 0,0 km/h (0 Bft) 91,49 %
12.11.2023 21:04 5,8 C 5,0 C 2,2 C 94 % 1009,2 hPa 0,0 l/m 0 min 0 min 0 W/m 0,0 km/h (0 Bft) 97,83 %
12.11.2023 21:08 5,8 C 5,0 C 2,2 C 94 % 1009,3 hPa 0,0 l/m 0 min 0 min 0 W/m 0,0 km/h (0 Bft) 94,68 %
12.11.2023 21:09 5,7 C 5,0 C 2,2 C 94 % 1009,3 hPa 0,0 l/m 0 min 0 min 0 W/m 0,0 km/h (0 Bft) 100,00 %
12.11.2023 21:10 5,7 C 5,0 C 2,2 C 94 % 1009,3 hPa 0,0 l/m 0 min 0 min 0 W/m 0,0 km/h (0 Bft) 97,37 %
12.11.2023 21:14 5,7 C 5,0 C 2,2 C 94 % 1009,2 hPa 0,0 l/m 0 min 0 min 0 W/m 0,0 km/h (0 Bft) 93,62 %
12.11.2023 21:16 5,7 C 5,0 C 2,2 C 94 % 1009,1 hPa 0,0 l/m 0 min 0 min 0 W/m 0,0 km/h (0 Bft) 93,62 %
12.11.2023 21:18 5,7 C 4,4 C 2,2 C 94 % 1009,1 hPa 0,0 l/m 0 min 0 min 0 W/m 0,0 km/h (0 Bft) 100,00 %
12.11.2023 21:20 5,7 C 4,4 C 2,2 C 94 % 1009,1 hPa 0,0 l/m 0 min 0 min 0 W/m 0,0 km/h (0 Bft) 93,62 %
12.11.2023 21:22 5,6 C 4,4 C 2,2 C 94 % 1009,2 hPa 0,0 l/m 0 min 0 min 0 W/m 0,0 km/h (0 Bft) 100,00 %
12.11.2023 21:24 5,6 C 4,4 C 2,2 C 94 % 1009,2 hPa 0,0 l/m 0 min 0 min 0 W/m 0,0 km/h (0 Bft) 97,87 %
12.11.2023 21:26 5,6 C 4,4 C 2,2 C 94 % 1009,2 hPa 0,0 l/m 0 min 0 min 0 W/m 0,0 km/h (0 Bft) 97,87 %
12.11.2023 21:28 5,6 C 4,4 C 2,2 C 94 % 1009,2 hPa 0,0 l/m 0 min 0 min 0 W/m 0,0 km/h (0 Bft) 100,00 %
12.11.2023 21:30 5,6 C 4,4 C 2,2 C 94 % 1009,2 hPa 0,0 l/m 0 min 0 min 0 W/m 0,0 km/h (0 Bft) 97,87 %
12.11.2023 21:32 5,6 C 4,4 C 2,2 C 94 % 1009,2 hPa 0,0 l/m 0 min 0 min 0 W/m 0,0 km/h (0 Bft) 97,87 %
12.11.2023 21:34 5,5 C 4,4 C 2,2 C 94 % 1009,2 hPa 0,0 l/m 0 min 0 min 0 W/m 0,0 km/h (0 Bft) 100,00 %
12.11.2023 21:36 5,4 C 4,4 C 2,2 C 94 % 1009,3 hPa 0,0 l/m 0 min 0 min 0 W/m 0,0 km/h (0 Bft) 97,83 %
12.11.2023 21:38 5,4 C 4,4 C 2,2 C 94 % 1009,3 hPa 0,0 l/m 0 min 0 min 0 W/m 3,2 km/h (1 Bft) 97,87 %
12.11.2023 21:40 5,4 C 4,4 C 2,2 C 94 % 1009,3 hPa 0,0 l/m 0 min 0 min 0 W/m 3,2 km/h (1 Bft) 100,00 %
12.11.2023 21:42 5,4 C 4,4 C 2,2 C 94 % 1009,2 hPa 0,0 l/m 0 min 0 min 0 W/m 0,0 km/h (0 Bft) 100,00 %
12.11.2023 21:44 5,4 C 4,4 C 2,2 C 94 % 1009,2 hPa 0,0 l/m 0 min 0 min 0 W/m 0,0 km/h (0 Bft) 97,87 %
12.11.2023 21:46 5,3 C 4,4 C 2,2 C 94 % 1009,2 hPa 0,0 l/m 0 min 0 min 0 W/m 3,2 km/h (1 Bft) 100,00 %
12.11.2023 21:48 5,3 C 4,4 C 2,2 C 94 % 1009,3 hPa 0,0 l/m 0 min 0 min 0 W/m 3,2 km/h (1 Bft) 100,00 %
12.11.2023 21:50 5,3 C 4,4 C 2,2 C 94 % 1009,5 hPa 0,0 l/m 0 min 0 min 0 W/m 0,0 km/h (0 Bft) 97,87 %
12.11.2023 21:52 5,3 C 4,4 C 2,2 C 94 % 1009,6 hPa 0,0 l/m 0 min 0 min 0 W/m 0,0 km/h (0 Bft) 100,00 %
12.11.2023 21:54 5,3 C 4,4 C 2,2 C 94 % 1009,7 hPa 0,0 l/m 0 min 0 min 0 W/m 0,0 km/h (0 Bft) 100,00 %
12.11.2023 21:56 5,3 C 4,4 C 2,2 C 94 % 1009,7 hPa 0,0 l/m 0 min 0 min 0 W/m 0,0 km/h (0 Bft) 95,74 %
12.11.2023 21:58 5,3 C 4,4 C 2,2 C 94 % 1009,6 hPa 0,0 l/m 0 min 0 min 0 W/m 3,2 km/h (1 Bft) 100,00 %
12.11.2023 22:00 5,2 C 4,4 C 1,7 C 94 % 1009,4 hPa 0,0 l/m 0 min 0 min 0 W/m 0,0 km/h (0 Bft) 100,00 %
12.11.2023 22:02 5,2 C 4,4 C 1,7 C 94 % 1009,3 hPa 0,0 l/m 0 min 0 min 0 W/m 0,0 km/h (0 Bft) 97,87 %
12.11.2023 22:04 5,2 C 4,4 C 1,7 C 95 % 1009,2 hPa 0,0 l/m 0 min 0 min 0 W/m 0,0 km/h (0 Bft) 100,00 %
12.11.2023 22:08 5,2 C 4,4 C 1,7 C 95 % 1009,3 hPa 0,0 l/m 0 min 0 min 0 W/m 3,2 km/h (1 Bft) 99,06 %
12.11.2023 22:09 5,2 C 4,4 C 1,7 C 95 % 1009,2 hPa 0,0 l/m 0 min 0 min 0 W/m 3,2 km/h (1 Bft) 100,00 %
12.11.2023 22:10 5,2 C 4,4 C 1,7 C 95 % 1009,2 hPa 0,0 l/m 0 min 0 min 0 W/m 3,2 km/h (1 Bft) 100,00 %
12.11.2023 22:14 5,1 C 4,4 C 1,7 C 95 % 1009,4 hPa 0,0 l/m 0 min 0 min 0 W/m 0,0 km/h (0 Bft) 100,00 %
12.11.2023 22:16 5,1 C 4,4 C 1,7 C 95 % 1009,5 hPa 0,0 l/m 0 min 0 min 0 W/m 3,2 km/h (1 Bft) 100,00 %
12.11.2023 22:18 5,1 C 4,4 C 1,7 C 95 % 1009,5 hPa 0,0 l/m 0 min 0 min 0 W/m 3,2 km/h (1 Bft) 95,74 %
12.11.2023 22:20 5,1 C 4,4 C 1,7 C 95 % 1009,5 hPa 0,0 l/m 0 min 0 min 0 W/m 3,2 km/h (1 Bft) 97,37 %
12.11.2023 22:22 5,1 C 4,4 C 1,7 C 95 % 1009,4 hPa 0,0 l/m 0 min 0 min 0 W/m 0,0 km/h (0 Bft) 95,74 %
12.11.2023 22:24 5,1 C 4,4 C 1,7 C 95 % 1009,4 hPa 0,0 l/m 0 min 0 min 0 W/m 3,2 km/h (1 Bft) 97,87 %
12.11.2023 22:26 5,1 C 4,4 C 1,7 C 95 % 1009,3 hPa 0,0 l/m 0 min 0 min 0 W/m 3,2 km/h (1 Bft) 95,74 %
12.11.2023 22:28 5,1 C 4,4 C 1,7 C 95 % 1009,3 hPa 0,0 l/m 0 min 0 min 0 W/m 0,0 km/h (0 Bft) 97,87 %
12.11.2023 22:30 5,1 C 4,4 C 1,7 C 95 % 1009,2 hPa 0,0 l/m 0 min 0 min 0 W/m 3,2 km/h (1 Bft) 97,87 %
12.11.2023 22:32 5,0 C 3,9 C 1,7 C 95 % 1009,2 hPa 0,0 l/m 0 min 0 min 0 W/m 0,0 km/h (0 Bft) 97,87 %
12.11.2023 22:34 5,1 C 3,9 C 1,7 C 95 % 1009,2 hPa 0,0 l/m 0 min 0 min 0 W/m 3,2 km/h (1 Bft) 91,30 %
12.11.2023 22:36 5,0 C 3,9 C 1,7 C 95 % 1009,1 hPa 0,0 l/m 0 min 0 min 0 W/m 0,0 km/h (0 Bft) 93,62 %
12.11.2023 22:38 5,0 C 3,9 C 1,7 C 95 % 1009,0 hPa 0,0 l/m 0 min 0 min 0 W/m 0,0 km/h (0 Bft) 97,87 %
12.11.2023 22:40 5,0 C 3,9 C 1,7 C 95 % 1008,9 hPa 0,0 l/m 0 min 0 min 0 W/m 3,2 km/h (1 Bft) 97,87 %
12.11.2023 22:42 4,9 C 3,9 C 1,7 C 95 % 1008,9 hPa 0,0 l/m 0 min 0 min 0 W/m 0,0 km/h (0 Bft) 97,87 %
12.11.2023 22:44 4,9 C 3,9 C 1,7 C 95 % 1008,9 hPa 0,0 l/m 0 min 0 min 0 W/m 0,0 km/h (0 Bft) 100,00 %
12.11.2023 22:46 4,9 C 3,9 C 1,7 C 95 % 1008,9 hPa 0,0 l/m 0 min 0 min 0 W/m 0,0 km/h (0 Bft) 97,87 %
12.11.2023 22:48 4,9 C 3,9 C 1,7 C 95 % 1009,0 hPa 0,0 l/m 0 min 0 min 0 W/m 3,2 km/h (1 Bft) 95,83 %
12.11.2023 22:50 4,9 C 3,9 C 1,7 C 95 % 1008,9 hPa 0,0 l/m 0 min 0 min 0 W/m 0,0 km/h (0 Bft) 100,00 %
12.11.2023 22:52 4,9 C 3,9 C 1,7 C 95 % 1009,0 hPa 0,0 l/m 0 min 0 min 0 W/m 0,0 km/h (0 Bft) 100,00 %
12.11.2023 22:54 4,9 C 3,9 C 1,7 C 95 % 1009,0 hPa 0,0 l/m 0 min 0 min 0 W/m 0,0 km/h (0 Bft) 97,96 %
12.11.2023 22:56 4,8 C 3,9 C 1,7 C 95 % 1009,1 hPa 0,0 l/m 0 min 0 min 0 W/m 0,0 km/h (0 Bft) 97,87 %
12.11.2023 22:58 4,8 C 3,9 C 1,7 C 95 % 1009,1 hPa 0,0 l/m 0 min 0 min 0 W/m 3,2 km/h (1 Bft) 95,74 %
12.11.2023 23:00 4,8 C 3,9 C 1,7 C 95 % 1009,2 hPa 0,0 l/m 0 min 0 min 0 W/m 0,0 km/h (0 Bft) 96,08 %
12.11.2023 23:02 4,8 C 3,9 C 1,7 C 95 % 1009,3 hPa 0,0 l/m 0 min 0 min 0 W/m 0,0 km/h (0 Bft) 95,12 %
12.11.2023 23:04 4,8 C 3,9 C 1,7 C 95 % 1009,3 hPa 0,0 l/m 0 min 0 min 0 W/m 0,0 km/h (0 Bft) 97,67 %
12.11.2023 23:08 4,8 C 3,9 C 1,7 C 95 % 1009,3 hPa 0,0 l/m 0 min 0 min 0 W/m 0,0 km/h (0 Bft) 97,85 %
12.11.2023 23:10 4,8 C 3,9 C 1,7 C 95 % 1009,4 hPa 0,0 l/m 0 min 0 min 0 W/m 0,0 km/h (0 Bft) 97,87 %
12.11.2023 23:12 4,8 C 3,9 C 1,7 C 95 % 1009,3 hPa 0,0 l/m 0 min 0 min 0 W/m 0,0 km/h (0 Bft) 95,74 %
12.11.2023 23:14 4,8 C 3,9 C 1,7 C 95 % 1009,3 hPa 0,0 l/m 0 min 0 min 0 W/m 0,0 km/h (0 Bft) 97,87 %
12.11.2023 23:16 4,8 C 3,9 C 1,7 C 95 % 1009,3 hPa 0,0 l/m 0 min 0 min 0 W/m 0,0 km/h (0 Bft) 97,87 %
12.11.2023 23:18 4,7 C 3,9 C 1,7 C 95 % 1009,3 hPa 0,0 l/m 0 min 0 min 0 W/m 0,0 km/h (0 Bft) 93,62 %
12.11.2023 23:20 4,7 C 3,9 C 1,7 C 95 % 1009,2 hPa 0,0 l/m 0 min 0 min 0 W/m 3,2 km/h (1 Bft) 97,83 %
12.11.2023 23:22 4,7 C 3,9 C 1,7 C 95 % 1009,3 hPa 0,0 l/m 0 min 0 min 0 W/m 0,0 km/h (0 Bft) 93,62 %
12.11.2023 23:24 4,7 C 3,9 C 1,7 C 95 % 1009,3 hPa 0,0 l/m 0 min 0 min 0 W/m 0,0 km/h (0 Bft) 97,87 %
12.11.2023 23:26 4,7 C 3,9 C 1,7 C 95 % 1009,4 hPa 0,0 l/m 0 min 0 min 0 W/m 0,0 km/h (0 Bft) 97,87 %
12.11.2023 23:28 4,7 C 3,9 C 1,7 C 95 % 1009,4 hPa 0,0 l/m 0 min 0 min 0 W/m 0,0 km/h (0 Bft) 97,87 %
12.11.2023 23:30 4,7 C 3,9 C 1,7 C 95 % 1009,4 hPa 0,0 l/m 0 min 0 min 0 W/m 0,0 km/h (0 Bft) 97,87 %
12.11.2023 23:32 4,7 C 3,9 C 1,7 C 95 % 1009,3 hPa 0,0 l/m 0 min 0 min 0 W/m 0,0 km/h (0 Bft) 98,11 %
12.11.2023 23:38 4,6 C 3,9 C 1,7 C 95 % 1009,7 hPa 0,0 l/m 0 min 0 min 0 W/m 3,2 km/h (1 Bft) 100,00 %
12.11.2023 23:39 4,6 C 3,9 C 1,7 C 95 % 1009,7 hPa 0,0 l/m 0 min 0 min 0 W/m 0,0 km/h (0 Bft) 100,00 %
12.11.2023 23:40 4,6 C 3,9 C 1,7 C 95 % 1009,7 hPa 0,0 l/m 0 min 0 min 0 W/m 3,2 km/h (1 Bft) 100,00 %
12.11.2023 23:44 4,6 C 3,9 C 1,7 C 96 % 1009,8 hPa 0,0 l/m 0 min 0 min 0 W/m 0,0 km/h (0 Bft) 97,83 %
12.11.2023 23:46 4,6 C 3,9 C 1,7 C 96 % 1009,8 hPa 0,0 l/m 0 min 0 min 0 W/m 0,0 km/h (0 Bft) 97,92 %
12.11.2023 23:48 4,6 C 3,9 C 1,7 C 96 % 1009,7 hPa 0,0 l/m 0 min 0 min 0 W/m 3,2 km/h (1 Bft) 97,83 %
12.11.2023 23:50 4,6 C 3,9 C 1,7 C 96 % 1009,6 hPa 0,0 l/m 0 min 0 min 0 W/m 3,2 km/h (1 Bft) 97,87 %
12.11.2023 23:52 4,6 C 3,9 C 1,1 C 96 % 1009,5 hPa 0,0 l/m 0 min 0 min 0 W/m 0,0 km/h (0 Bft) 97,87 %
12.11.2023 23:54 4,6 C 3,9 C 1,1 C 96 % 1009,6 hPa 0,0 l/m 0 min 0 min 0 W/m 0,0 km/h (0 Bft) 97,87 %
12.11.2023 23:56 4,6 C 3,9 C 1,7 C 96 % 1009,7 hPa 0,0 l/m 0 min 0 min 0 W/m 0,0 km/h (0 Bft) 93,62 %
12.11.2023 23:58 4,6 C 3,9 C 1,7 C 96 % 1009,7 hPa 0,0 l/m 0 min 0 min 0 W/m 0,0 km/h (0 Bft) 91,49 %
_ Min-Zeit 05:00 04:00 04:06 13:02 05:04 - - - - 00:02 08:12
Minimum _ 2,4 C 1,7 C -0,6 C 89 % 1006,1 hPa - - - - 0,0 km/h (0 Bft) 51,22 %
_ Max-Zeit 13:50 10:14 13:08 06:36 23:44 17:42 10:08 00:00 10:08 00:34 00:09
Maximum _ 8,4 C 13,9 C 5,0 C 98 % 1009,8 hPa 0,2 l/m 4 min 0 min 257 W/m 12,9 km/h
SW (3 Bft)
100,00 %
Durchschnitt _ 5,3 C 4,9 C 2,1 C 95 % 1007,6 hPa #0,2 l/m #1:00 h #0 min. 75 W/m 2,4 km/h (1 Bft) 97,22 %
© 2023 W. Hausmann